<?xml version="1.0" encoding="UTF-8"?>
<gpx version="1.1" creator="https://www.www-youtrack-es.amenigma.com" xsi:schemaLocation="http://www.topografix.com/GPX/1/1 http://www.topografix.com/GPX/1/1/gpx.xsd http://www.garmin.com/xmlschemas/GpxExtensions/v3 http://www.garmin.com/xmlschemas/GpxExtensionsv3.xsd http://www.garmin.com/xmlschemas/TrackPointExtension/v1 http://www.garmin.com/xmlschemas/TrackPointExtensionv1.xsd" xmlns:gpxtpx="http://www.garmin.com/xmlschemas/TrackPointExtension/v1" xmlns:gpxx="http://www.garmin.com/xmlschemas/GpxExtensions/v3" xmlns:xsi="http://www.w3.org/2001/XMLSchema-instance">
  <metadata>
    <link href="https://www.www-youtrack-es.amenigma.com">
      <text>YouTrack.es</text>
    </link>
    <time>2026-08-31T21:41:35Z</time>
  </metadata>
  <trk>
    <src>https://www.www-youtrack-es.amenigma.com</src>
    <link href="https://www.www-youtrack-es.amenigma.com/ruta/11689-ruta-jamon-queso-2020">
      <text>YouTrack.es</text>
    </link>
    <trkseg>
      <trkpt lat="39.243945" lon="-6.990600">
        <ele>368.263</ele>
        <time>2020-02-20T08:41:56Z</time>
      </trkpt>
      <trkpt lat="39.241080" lon="-6.992139">
        <ele>368.144</ele>
        <time>2020-02-20T08:42:22Z</time>
      </trkpt>
      <trkpt lat="39.240408" lon="-6.992362">
        <ele>367.118</ele>
        <time>2020-02-20T08:42:32Z</time>
      </trkpt>
      <trkpt lat="39.240295" lon="-6.991377">
        <ele>371.208</ele>
        <time>2020-02-20T08:42:41Z</time>
      </trkpt>
      <trkpt lat="39.240843" lon="-6.988809">
        <ele>376.730</ele>
        <time>2020-02-20T08:43:01Z</time>
      </trkpt>
      <trkpt lat="39.240317" lon="-6.988254">
        <ele>374.222</ele>
        <time>2020-02-20T08:43:26Z</time>
      </trkpt>
      <trkpt lat="39.240249" lon="-6.987499">
        <ele>376.865</ele>
        <time>2020-02-20T08:43:47Z</time>
      </trkpt>
      <trkpt lat="39.240082" lon="-6.987347">
        <ele>378.816</ele>
        <time>2020-02-20T08:43:57Z</time>
      </trkpt>
      <trkpt lat="39.239976" lon="-6.986827">
        <ele>380.029</ele>
        <time>2020-02-20T08:44:11Z</time>
      </trkpt>
      <trkpt lat="39.239476" lon="-6.986371">
        <ele>383.274</ele>
        <time>2020-02-20T08:44:32Z</time>
      </trkpt>
      <trkpt lat="39.239243" lon="-6.985208">
        <ele>386.450</ele>
        <time>2020-02-20T08:44:53Z</time>
      </trkpt>
      <trkpt lat="39.237764" lon="-6.982296">
        <ele>390.526</ele>
        <time>2020-02-20T08:45:55Z</time>
      </trkpt>
      <trkpt lat="39.237087" lon="-6.979629">
        <ele>385.298</ele>
        <time>2020-02-20T08:47:07Z</time>
      </trkpt>
      <trkpt lat="39.236825" lon="-6.979262">
        <ele>385.915</ele>
        <time>2020-02-20T08:47:26Z</time>
      </trkpt>
      <trkpt lat="39.235721" lon="-6.980293">
        <ele>395.326</ele>
        <time>2020-02-20T08:48:04Z</time>
      </trkpt>
      <trkpt lat="39.234204" lon="-6.981181">
        <ele>400.208</ele>
        <time>2020-02-20T08:48:28Z</time>
      </trkpt>
      <trkpt lat="39.232481" lon="-6.982676">
        <ele>407.663</ele>
        <time>2020-02-20T08:48:52Z</time>
      </trkpt>
      <trkpt lat="39.230960" lon="-6.983519">
        <ele>415.155</ele>
        <time>2020-02-20T08:49:12Z</time>
      </trkpt>
      <trkpt lat="39.228640" lon="-6.984189">
        <ele>419.368</ele>
        <time>2020-02-20T08:49:42Z</time>
      </trkpt>
      <trkpt lat="39.227522" lon="-6.984821">
        <ele>422.219</ele>
        <time>2020-02-20T08:49:57Z</time>
      </trkpt>
      <trkpt lat="39.226745" lon="-6.984758">
        <ele>423.252</ele>
        <time>2020-02-20T08:50:07Z</time>
      </trkpt>
      <trkpt lat="39.224711" lon="-6.985004">
        <ele>423.967</ele>
        <time>2020-02-20T08:50:35Z</time>
      </trkpt>
      <trkpt lat="39.222761" lon="-6.986314">
        <ele>424.723</ele>
        <time>2020-02-20T08:51:09Z</time>
      </trkpt>
      <trkpt lat="39.221629" lon="-6.986584">
        <ele>423.819</ele>
        <time>2020-02-20T08:51:28Z</time>
      </trkpt>
      <trkpt lat="39.221366" lon="-6.984086">
        <ele>418.333</ele>
        <time>2020-02-20T08:51:59Z</time>
      </trkpt>
      <trkpt lat="39.222016" lon="-6.980749">
        <ele>415.323</ele>
        <time>2020-02-20T08:52:50Z</time>
      </trkpt>
      <trkpt lat="39.221520" lon="-6.978524">
        <ele>418.115</ele>
        <time>2020-02-20T08:53:28Z</time>
      </trkpt>
      <trkpt lat="39.222295" lon="-6.977270">
        <ele>418.008</ele>
        <time>2020-02-20T08:53:56Z</time>
      </trkpt>
      <trkpt lat="39.222469" lon="-6.976516">
        <ele>416.377</ele>
        <time>2020-02-20T08:54:09Z</time>
      </trkpt>
      <trkpt lat="39.222188" lon="-6.975875">
        <ele>413.439</ele>
        <time>2020-02-20T08:54:24Z</time>
      </trkpt>
      <trkpt lat="39.221866" lon="-6.974208">
        <ele>407.772</ele>
        <time>2020-02-20T08:54:54Z</time>
      </trkpt>
      <trkpt lat="39.222123" lon="-6.973701">
        <ele>405.953</ele>
        <time>2020-02-20T08:55:09Z</time>
      </trkpt>
      <trkpt lat="39.222260" lon="-6.972819">
        <ele>405.346</ele>
        <time>2020-02-20T08:55:24Z</time>
      </trkpt>
      <trkpt lat="39.222140" lon="-6.970581">
        <ele>399.231</ele>
        <time>2020-02-20T08:56:13Z</time>
      </trkpt>
      <trkpt lat="39.222586" lon="-6.970196">
        <ele>398.357</ele>
        <time>2020-02-20T08:56:30Z</time>
      </trkpt>
      <trkpt lat="39.223578" lon="-6.969983">
        <ele>394.643</ele>
        <time>2020-02-20T08:56:53Z</time>
      </trkpt>
      <trkpt lat="39.224502" lon="-6.969187">
        <ele>395.087</ele>
        <time>2020-02-20T08:57:18Z</time>
      </trkpt>
      <trkpt lat="39.225079" lon="-6.967518">
        <ele>388.542</ele>
        <time>2020-02-20T08:57:51Z</time>
      </trkpt>
      <trkpt lat="39.225334" lon="-6.965934">
        <ele>384.626</ele>
        <time>2020-02-20T08:58:22Z</time>
      </trkpt>
      <trkpt lat="39.225634" lon="-6.965075">
        <ele>383.008</ele>
        <time>2020-02-20T08:58:34Z</time>
      </trkpt>
      <trkpt lat="39.227466" lon="-6.961849">
        <ele>376.862</ele>
        <time>2020-02-20T08:59:52Z</time>
      </trkpt>
      <trkpt lat="39.228034" lon="-6.960570">
        <ele>379.094</ele>
        <time>2020-02-20T09:00:27Z</time>
      </trkpt>
      <trkpt lat="39.228505" lon="-6.958734">
        <ele>381.727</ele>
        <time>2020-02-20T09:00:57Z</time>
      </trkpt>
      <trkpt lat="39.228261" lon="-6.957290">
        <ele>387.818</ele>
        <time>2020-02-20T09:01:31Z</time>
      </trkpt>
      <trkpt lat="39.228330" lon="-6.955892">
        <ele>387.031</ele>
        <time>2020-02-20T09:01:56Z</time>
      </trkpt>
      <trkpt lat="39.228535" lon="-6.955741">
        <ele>388.986</ele>
        <time>2020-02-20T09:02:11Z</time>
      </trkpt>
      <trkpt lat="39.228781" lon="-6.955190">
        <ele>389.342</ele>
        <time>2020-02-20T09:02:24Z</time>
      </trkpt>
      <trkpt lat="39.228892" lon="-6.954362">
        <ele>391.688</ele>
        <time>2020-02-20T09:02:39Z</time>
      </trkpt>
      <trkpt lat="39.228449" lon="-6.952939">
        <ele>387.666</ele>
        <time>2020-02-20T09:03:13Z</time>
      </trkpt>
      <trkpt lat="39.227584" lon="-6.951059">
        <ele>382.629</ele>
        <time>2020-02-20T09:03:47Z</time>
      </trkpt>
      <trkpt lat="39.226708" lon="-6.948602">
        <ele>371.921</ele>
        <time>2020-02-20T09:04:33Z</time>
      </trkpt>
      <trkpt lat="39.226458" lon="-6.948257">
        <ele>371.008</ele>
        <time>2020-02-20T09:04:54Z</time>
      </trkpt>
      <trkpt lat="39.225722" lon="-6.945808">
        <ele>370.060</ele>
        <time>2020-02-20T09:06:30Z</time>
      </trkpt>
      <trkpt lat="39.225935" lon="-6.946531">
        <ele>370.142</ele>
        <time>2020-02-20T09:06:36Z</time>
      </trkpt>
      <trkpt lat="39.226464" lon="-6.943768">
        <ele>373.235</ele>
        <time>2020-02-20T09:07:36Z</time>
      </trkpt>
      <trkpt lat="39.226379" lon="-6.942790">
        <ele>371.166</ele>
        <time>2020-02-20T09:07:55Z</time>
      </trkpt>
      <trkpt lat="39.225950" lon="-6.941632">
        <ele>369.629</ele>
        <time>2020-02-20T09:08:19Z</time>
      </trkpt>
      <trkpt lat="39.225351" lon="-6.941153">
        <ele>369.554</ele>
        <time>2020-02-20T09:08:34Z</time>
      </trkpt>
      <trkpt lat="39.223831" lon="-6.941656">
        <ele>371.220</ele>
        <time>2020-02-20T09:09:40Z</time>
      </trkpt>
      <trkpt lat="39.224175" lon="-6.941489">
        <ele>371.616</ele>
        <time>2020-02-20T09:09:42Z</time>
      </trkpt>
      <trkpt lat="39.224047" lon="-6.941500">
        <ele>371.837</ele>
        <time>2020-02-20T09:09:46Z</time>
      </trkpt>
      <trkpt lat="39.223344" lon="-6.942166">
        <ele>370.449</ele>
        <time>2020-02-20T09:10:13Z</time>
      </trkpt>
      <trkpt lat="39.222542" lon="-6.941933">
        <ele>369.413</ele>
        <time>2020-02-20T09:10:28Z</time>
      </trkpt>
      <trkpt lat="39.222144" lon="-6.941409">
        <ele>368.108</ele>
        <time>2020-02-20T09:10:38Z</time>
      </trkpt>
      <trkpt lat="39.222016" lon="-6.940280">
        <ele>361.557</ele>
        <time>2020-02-20T09:10:57Z</time>
      </trkpt>
      <trkpt lat="39.221606" lon="-6.939407">
        <ele>354.689</ele>
        <time>2020-02-20T09:11:13Z</time>
      </trkpt>
      <trkpt lat="39.220251" lon="-6.938484">
        <ele>360.952</ele>
        <time>2020-02-20T09:11:47Z</time>
      </trkpt>
      <trkpt lat="39.219487" lon="-6.938644">
        <ele>357.333</ele>
        <time>2020-02-20T09:12:01Z</time>
      </trkpt>
      <trkpt lat="39.218862" lon="-6.939496">
        <ele>353.696</ele>
        <time>2020-02-20T09:12:24Z</time>
      </trkpt>
      <trkpt lat="39.218288" lon="-6.939867">
        <ele>356.281</ele>
        <time>2020-02-20T09:12:49Z</time>
      </trkpt>
      <trkpt lat="39.217927" lon="-6.939116">
        <ele>355.517</ele>
        <time>2020-02-20T09:13:30Z</time>
      </trkpt>
      <trkpt lat="39.217612" lon="-6.939003">
        <ele>355.333</ele>
        <time>2020-02-20T09:14:02Z</time>
      </trkpt>
      <trkpt lat="39.217348" lon="-6.939110">
        <ele>355.143</ele>
        <time>2020-02-20T09:14:35Z</time>
      </trkpt>
      <trkpt lat="39.218157" lon="-6.939422">
        <ele>354.464</ele>
        <time>2020-02-20T09:15:21Z</time>
      </trkpt>
      <trkpt lat="39.218015" lon="-6.937486">
        <ele>348.110</ele>
        <time>2020-02-20T09:15:46Z</time>
      </trkpt>
      <trkpt lat="39.218710" lon="-6.935866">
        <ele>342.808</ele>
        <time>2020-02-20T09:16:15Z</time>
      </trkpt>
      <trkpt lat="39.219597" lon="-6.934355">
        <ele>335.388</ele>
        <time>2020-02-20T09:16:58Z</time>
      </trkpt>
      <trkpt lat="39.219774" lon="-6.933582">
        <ele>333.940</ele>
        <time>2020-02-20T09:17:08Z</time>
      </trkpt>
      <trkpt lat="39.219706" lon="-6.932926">
        <ele>331.623</ele>
        <time>2020-02-20T09:17:19Z</time>
      </trkpt>
      <trkpt lat="39.219940" lon="-6.932217">
        <ele>329.124</ele>
        <time>2020-02-20T09:17:32Z</time>
      </trkpt>
      <trkpt lat="39.219843" lon="-6.930730">
        <ele>325.847</ele>
        <time>2020-02-20T09:18:02Z</time>
      </trkpt>
      <trkpt lat="39.219202" lon="-6.929337">
        <ele>323.052</ele>
        <time>2020-02-20T09:18:34Z</time>
      </trkpt>
      <trkpt lat="39.218448" lon="-6.928542">
        <ele>321.218</ele>
        <time>2020-02-20T09:18:58Z</time>
      </trkpt>
      <trkpt lat="39.216834" lon="-6.928395">
        <ele>320.744</ele>
        <time>2020-02-20T09:19:27Z</time>
      </trkpt>
      <trkpt lat="39.216159" lon="-6.928048">
        <ele>318.788</ele>
        <time>2020-02-20T09:19:37Z</time>
      </trkpt>
      <trkpt lat="39.215471" lon="-6.928033">
        <ele>316.624</ele>
        <time>2020-02-20T09:19:48Z</time>
      </trkpt>
      <trkpt lat="39.214681" lon="-6.927800">
        <ele>313.326</ele>
        <time>2020-02-20T09:20:02Z</time>
      </trkpt>
      <trkpt lat="39.213986" lon="-6.928011">
        <ele>306.108</ele>
        <time>2020-02-20T09:20:13Z</time>
      </trkpt>
      <trkpt lat="39.213483" lon="-6.928609">
        <ele>302.842</ele>
        <time>2020-02-20T09:20:25Z</time>
      </trkpt>
      <trkpt lat="39.212321" lon="-6.928907">
        <ele>306.514</ele>
        <time>2020-02-20T09:20:49Z</time>
      </trkpt>
      <trkpt lat="39.211026" lon="-6.929554">
        <ele>309.937</ele>
        <time>2020-02-20T09:21:10Z</time>
      </trkpt>
      <trkpt lat="39.210493" lon="-6.928970">
        <ele>313.478</ele>
        <time>2020-02-20T09:21:47Z</time>
      </trkpt>
      <trkpt lat="39.209538" lon="-6.926085">
        <ele>308.371</ele>
        <time>2020-02-20T09:22:29Z</time>
      </trkpt>
      <trkpt lat="39.209016" lon="-6.925064">
        <ele>302.276</ele>
        <time>2020-02-20T09:22:47Z</time>
      </trkpt>
      <trkpt lat="39.208960" lon="-6.925149">
        <ele>301.882</ele>
        <time>2020-02-20T09:23:16Z</time>
      </trkpt>
      <trkpt lat="39.209034" lon="-6.925225">
        <ele>301.938</ele>
        <time>2020-02-20T09:23:37Z</time>
      </trkpt>
      <trkpt lat="39.208807" lon="-6.923513">
        <ele>299.175</ele>
        <time>2020-02-20T09:25:01Z</time>
      </trkpt>
      <trkpt lat="39.207297" lon="-6.920363">
        <ele>310.228</ele>
        <time>2020-02-20T09:26:58Z</time>
      </trkpt>
      <trkpt lat="39.206603" lon="-6.919476">
        <ele>310.120</ele>
        <time>2020-02-20T09:27:21Z</time>
      </trkpt>
      <trkpt lat="39.205584" lon="-6.918735">
        <ele>295.908</ele>
        <time>2020-02-20T09:27:53Z</time>
      </trkpt>
      <trkpt lat="39.204461" lon="-6.919032">
        <ele>287.251</ele>
        <time>2020-02-20T09:28:24Z</time>
      </trkpt>
      <trkpt lat="39.204294" lon="-6.918864">
        <ele>286.323</ele>
        <time>2020-02-20T09:28:31Z</time>
      </trkpt>
      <trkpt lat="39.203972" lon="-6.917465">
        <ele>289.966</ele>
        <time>2020-02-20T09:28:56Z</time>
      </trkpt>
      <trkpt lat="39.204012" lon="-6.914362">
        <ele>280.137</ele>
        <time>2020-02-20T09:29:47Z</time>
      </trkpt>
      <trkpt lat="39.203583" lon="-6.912979">
        <ele>275.910</ele>
        <time>2020-02-20T09:30:13Z</time>
      </trkpt>
      <trkpt lat="39.203528" lon="-6.911137">
        <ele>273.535</ele>
        <time>2020-02-20T09:30:44Z</time>
      </trkpt>
      <trkpt lat="39.203257" lon="-6.910114">
        <ele>272.121</ele>
        <time>2020-02-20T09:31:01Z</time>
      </trkpt>
      <trkpt lat="39.203145" lon="-6.908445">
        <ele>271.837</ele>
        <time>2020-02-20T09:31:27Z</time>
      </trkpt>
      <trkpt lat="39.203205" lon="-6.906585">
        <ele>271.973</ele>
        <time>2020-02-20T09:32:00Z</time>
      </trkpt>
      <trkpt lat="39.203369" lon="-6.905842">
        <ele>274.585</ele>
        <time>2020-02-20T09:32:12Z</time>
      </trkpt>
      <trkpt lat="39.203303" lon="-6.904931">
        <ele>267.713</ele>
        <time>2020-02-20T09:32:26Z</time>
      </trkpt>
      <trkpt lat="39.202008" lon="-6.902704">
        <ele>257.608</ele>
        <time>2020-02-20T09:33:15Z</time>
      </trkpt>
      <trkpt lat="39.200709" lon="-6.902054">
        <ele>250.241</ele>
        <time>2020-02-20T09:34:16Z</time>
      </trkpt>
      <trkpt lat="39.200554" lon="-6.901316">
        <ele>248.243</ele>
        <time>2020-02-20T09:34:39Z</time>
      </trkpt>
      <trkpt lat="39.200142" lon="-6.900418">
        <ele>245.396</ele>
        <time>2020-02-20T09:38:28Z</time>
      </trkpt>
      <trkpt lat="39.200143" lon="-6.898026">
        <ele>237.317</ele>
        <time>2020-02-20T09:39:17Z</time>
      </trkpt>
      <trkpt lat="39.200005" lon="-6.897314">
        <ele>234.660</ele>
        <time>2020-02-20T09:39:34Z</time>
      </trkpt>
      <trkpt lat="39.200145" lon="-6.896986">
        <ele>234.735</ele>
        <time>2020-02-20T09:39:50Z</time>
      </trkpt>
      <trkpt lat="39.200213" lon="-6.895147">
        <ele>236.991</ele>
        <time>2020-02-20T09:40:22Z</time>
      </trkpt>
      <trkpt lat="39.200814" lon="-6.894571">
        <ele>238.677</ele>
        <time>2020-02-20T09:40:45Z</time>
      </trkpt>
      <trkpt lat="39.201732" lon="-6.894341">
        <ele>242.298</ele>
        <time>2020-02-20T09:41:07Z</time>
      </trkpt>
      <trkpt lat="39.202141" lon="-6.896293">
        <ele>245.415</ele>
        <time>2020-02-20T09:41:46Z</time>
      </trkpt>
      <trkpt lat="39.202178" lon="-6.897797">
        <ele>246.026</ele>
        <time>2020-02-20T09:42:08Z</time>
      </trkpt>
      <trkpt lat="39.202605" lon="-6.900140">
        <ele>248.708</ele>
        <time>2020-02-20T09:42:50Z</time>
      </trkpt>
      <trkpt lat="39.202758" lon="-6.903469">
        <ele>259.473</ele>
        <time>2020-02-20T09:43:45Z</time>
      </trkpt>
      <trkpt lat="39.203774" lon="-6.906480">
        <ele>276.335</ele>
        <time>2020-02-20T09:44:53Z</time>
      </trkpt>
      <trkpt lat="39.203941" lon="-6.906603">
        <ele>276.898</ele>
        <time>2020-02-20T09:45:05Z</time>
      </trkpt>
      <trkpt lat="39.204779" lon="-6.906400">
        <ele>288.719</ele>
        <time>2020-02-20T09:45:32Z</time>
      </trkpt>
      <trkpt lat="39.205758" lon="-6.906744">
        <ele>294.052</ele>
        <time>2020-02-20T09:45:59Z</time>
      </trkpt>
      <trkpt lat="39.207365" lon="-6.906647">
        <ele>285.637</ele>
        <time>2020-02-20T09:46:36Z</time>
      </trkpt>
      <trkpt lat="39.208790" lon="-6.907411">
        <ele>271.563</ele>
        <time>2020-02-20T09:47:17Z</time>
      </trkpt>
      <trkpt lat="39.209569" lon="-6.908019">
        <ele>268.789</ele>
        <time>2020-02-20T09:47:40Z</time>
      </trkpt>
      <trkpt lat="39.209888" lon="-6.907568">
        <ele>267.986</ele>
        <time>2020-02-20T09:48:02Z</time>
      </trkpt>
      <trkpt lat="39.210851" lon="-6.907789">
        <ele>271.160</ele>
        <time>2020-02-20T09:49:26Z</time>
      </trkpt>
      <trkpt lat="39.211429" lon="-6.907414">
        <ele>274.626</ele>
        <time>2020-02-20T09:49:48Z</time>
      </trkpt>
      <trkpt lat="39.211753" lon="-6.907449">
        <ele>275.608</ele>
        <time>2020-02-20T09:50:00Z</time>
      </trkpt>
      <trkpt lat="39.212384" lon="-6.907114">
        <ele>284.112</ele>
        <time>2020-02-20T09:50:20Z</time>
      </trkpt>
      <trkpt lat="39.213449" lon="-6.906201">
        <ele>271.984</ele>
        <time>2020-02-20T09:51:01Z</time>
      </trkpt>
      <trkpt lat="39.213937" lon="-6.905161">
        <ele>267.127</ele>
        <time>2020-02-20T09:51:21Z</time>
      </trkpt>
      <trkpt lat="39.214667" lon="-6.904461">
        <ele>257.858</ele>
        <time>2020-02-20T09:51:53Z</time>
      </trkpt>
      <trkpt lat="39.215269" lon="-6.903449">
        <ele>254.981</ele>
        <time>2020-02-20T09:52:15Z</time>
      </trkpt>
      <trkpt lat="39.215107" lon="-6.900786">
        <ele>254.286</ele>
        <time>2020-02-20T09:52:53Z</time>
      </trkpt>
      <trkpt lat="39.215334" lon="-6.899441">
        <ele>257.012</ele>
        <time>2020-02-20T09:53:11Z</time>
      </trkpt>
      <trkpt lat="39.215643" lon="-6.898596">
        <ele>259.278</ele>
        <time>2020-02-20T09:53:23Z</time>
      </trkpt>
      <trkpt lat="39.215816" lon="-6.897270">
        <ele>259.872</ele>
        <time>2020-02-20T09:53:43Z</time>
      </trkpt>
      <trkpt lat="39.216381" lon="-6.895851">
        <ele>260.813</ele>
        <time>2020-02-20T09:54:05Z</time>
      </trkpt>
      <trkpt lat="39.216590" lon="-6.894495">
        <ele>260.114</ele>
        <time>2020-02-20T09:54:25Z</time>
      </trkpt>
      <trkpt lat="39.216631" lon="-6.891359">
        <ele>263.808</ele>
        <time>2020-02-20T09:57:41Z</time>
      </trkpt>
      <trkpt lat="39.216970" lon="-6.891431">
        <ele>263.831</ele>
        <time>2020-02-20T09:58:11Z</time>
      </trkpt>
      <trkpt lat="39.216764" lon="-6.891425">
        <ele>263.933</ele>
        <time>2020-02-20T09:58:16Z</time>
      </trkpt>
      <trkpt lat="39.218258" lon="-6.892258">
        <ele>275.736</ele>
        <time>2020-02-20T09:59:14Z</time>
      </trkpt>
      <trkpt lat="39.219016" lon="-6.892888">
        <ele>275.457</ele>
        <time>2020-02-20T09:59:34Z</time>
      </trkpt>
      <trkpt lat="39.220075" lon="-6.897383">
        <ele>273.130</ele>
        <time>2020-02-20T10:00:59Z</time>
      </trkpt>
      <trkpt lat="39.220205" lon="-6.899232">
        <ele>277.645</ele>
        <time>2020-02-20T10:01:30Z</time>
      </trkpt>
      <trkpt lat="39.220544" lon="-6.900612">
        <ele>281.481</ele>
        <time>2020-02-20T10:01:56Z</time>
      </trkpt>
      <trkpt lat="39.220416" lon="-6.901399">
        <ele>285.037</ele>
        <time>2020-02-20T10:02:08Z</time>
      </trkpt>
      <trkpt lat="39.221073" lon="-6.901928">
        <ele>285.194</ele>
        <time>2020-02-20T10:02:26Z</time>
      </trkpt>
      <trkpt lat="39.221429" lon="-6.901449">
        <ele>287.157</ele>
        <time>2020-02-20T10:02:36Z</time>
      </trkpt>
      <trkpt lat="39.222199" lon="-6.901559">
        <ele>293.422</ele>
        <time>2020-02-20T10:02:52Z</time>
      </trkpt>
      <trkpt lat="39.223009" lon="-6.901063">
        <ele>301.308</ele>
        <time>2020-02-20T10:03:09Z</time>
      </trkpt>
      <trkpt lat="39.224037" lon="-6.900786">
        <ele>309.133</ele>
        <time>2020-02-20T10:03:30Z</time>
      </trkpt>
      <trkpt lat="39.224633" lon="-6.901372">
        <ele>314.365</ele>
        <time>2020-02-20T10:03:46Z</time>
      </trkpt>
      <trkpt lat="39.225214" lon="-6.901566">
        <ele>320.868</ele>
        <time>2020-02-20T10:03:57Z</time>
      </trkpt>
      <trkpt lat="39.226309" lon="-6.903021">
        <ele>335.459</ele>
        <time>2020-02-20T10:04:46Z</time>
      </trkpt>
      <trkpt lat="39.226524" lon="-6.903792">
        <ele>333.152</ele>
        <time>2020-02-20T10:05:10Z</time>
      </trkpt>
      <trkpt lat="39.227796" lon="-6.905888">
        <ele>319.957</ele>
        <time>2020-02-20T10:06:05Z</time>
      </trkpt>
      <trkpt lat="39.227653" lon="-6.908754">
        <ele>305.663</ele>
        <time>2020-02-20T10:09:03Z</time>
      </trkpt>
      <trkpt lat="39.227245" lon="-6.909687">
        <ele>302.079</ele>
        <time>2020-02-20T10:09:20Z</time>
      </trkpt>
      <trkpt lat="39.227258" lon="-6.910005">
        <ele>300.131</ele>
        <time>2020-02-20T10:09:25Z</time>
      </trkpt>
      <trkpt lat="39.227902" lon="-6.911192">
        <ele>290.661</ele>
        <time>2020-02-20T10:09:50Z</time>
      </trkpt>
      <trkpt lat="39.229229" lon="-6.915346">
        <ele>290.907</ele>
        <time>2020-02-20T10:10:54Z</time>
      </trkpt>
      <trkpt lat="39.230022" lon="-6.916129">
        <ele>289.308</ele>
        <time>2020-02-20T10:11:20Z</time>
      </trkpt>
      <trkpt lat="39.230388" lon="-6.917039">
        <ele>289.537</ele>
        <time>2020-02-20T10:11:52Z</time>
      </trkpt>
      <trkpt lat="39.230257" lon="-6.917345">
        <ele>288.349</ele>
        <time>2020-02-20T10:16:11Z</time>
      </trkpt>
      <trkpt lat="39.230346" lon="-6.917162">
        <ele>288.412</ele>
        <time>2020-02-20T10:16:18Z</time>
      </trkpt>
      <trkpt lat="39.229689" lon="-6.917781">
        <ele>282.883</ele>
        <time>2020-02-20T10:16:40Z</time>
      </trkpt>
      <trkpt lat="39.229353" lon="-6.917922">
        <ele>282.176</ele>
        <time>2020-02-20T10:16:50Z</time>
      </trkpt>
      <trkpt lat="39.228624" lon="-6.917934">
        <ele>286.271</ele>
        <time>2020-02-20T10:17:07Z</time>
      </trkpt>
      <trkpt lat="39.227570" lon="-6.918770">
        <ele>287.217</ele>
        <time>2020-02-20T10:17:26Z</time>
      </trkpt>
      <trkpt lat="39.226480" lon="-6.920160">
        <ele>288.233</ele>
        <time>2020-02-20T10:17:54Z</time>
      </trkpt>
      <trkpt lat="39.226199" lon="-6.920850">
        <ele>289.957</ele>
        <time>2020-02-20T10:18:04Z</time>
      </trkpt>
      <trkpt lat="39.225181" lon="-6.921597">
        <ele>291.800</ele>
        <time>2020-02-20T10:18:23Z</time>
      </trkpt>
      <trkpt lat="39.224761" lon="-6.922225">
        <ele>292.820</ele>
        <time>2020-02-20T10:18:35Z</time>
      </trkpt>
      <trkpt lat="39.224204" lon="-6.922570">
        <ele>294.208</ele>
        <time>2020-02-20T10:18:45Z</time>
      </trkpt>
      <trkpt lat="39.223601" lon="-6.923615">
        <ele>296.569</ele>
        <time>2020-02-20T10:18:59Z</time>
      </trkpt>
      <trkpt lat="39.221611" lon="-6.925962">
        <ele>302.371</ele>
        <time>2020-02-20T10:19:42Z</time>
      </trkpt>
      <trkpt lat="39.219758" lon="-6.927886">
        <ele>311.714</ele>
        <time>2020-02-20T10:21:21Z</time>
      </trkpt>
      <trkpt lat="39.219438" lon="-6.928546">
        <ele>313.295</ele>
        <time>2020-02-20T10:21:37Z</time>
      </trkpt>
      <trkpt lat="39.219490" lon="-6.929925">
        <ele>319.468</ele>
        <time>2020-02-20T10:21:55Z</time>
      </trkpt>
      <trkpt lat="39.219896" lon="-6.930848">
        <ele>321.213</ele>
        <time>2020-02-20T10:22:17Z</time>
      </trkpt>
      <trkpt lat="39.220035" lon="-6.931946">
        <ele>322.919</ele>
        <time>2020-02-20T10:22:37Z</time>
      </trkpt>
      <trkpt lat="39.220714" lon="-6.932079">
        <ele>324.615</ele>
        <time>2020-02-20T10:22:53Z</time>
      </trkpt>
      <trkpt lat="39.221098" lon="-6.932629">
        <ele>329.685</ele>
        <time>2020-02-20T10:23:08Z</time>
      </trkpt>
      <trkpt lat="39.221611" lon="-6.932788">
        <ele>335.789</ele>
        <time>2020-02-20T10:23:16Z</time>
      </trkpt>
      <trkpt lat="39.222578" lon="-6.932610">
        <ele>341.717</ele>
        <time>2020-02-20T10:23:30Z</time>
      </trkpt>
      <trkpt lat="39.223500" lon="-6.933424">
        <ele>348.708</ele>
        <time>2020-02-20T10:23:46Z</time>
      </trkpt>
      <trkpt lat="39.223800" lon="-6.933429">
        <ele>349.742</ele>
        <time>2020-02-20T10:23:50Z</time>
      </trkpt>
      <trkpt lat="39.224305" lon="-6.933126">
        <ele>352.354</ele>
        <time>2020-02-20T10:23:58Z</time>
      </trkpt>
      <trkpt lat="39.225060" lon="-6.933640">
        <ele>353.987</ele>
        <time>2020-02-20T10:24:12Z</time>
      </trkpt>
      <trkpt lat="39.225324" lon="-6.934396">
        <ele>353.138</ele>
        <time>2020-02-20T10:24:23Z</time>
      </trkpt>
      <trkpt lat="39.224798" lon="-6.936586">
        <ele>356.791</ele>
        <time>2020-02-20T10:24:54Z</time>
      </trkpt>
      <trkpt lat="39.225309" lon="-6.938900">
        <ele>350.636</ele>
        <time>2020-02-20T10:25:26Z</time>
      </trkpt>
      <trkpt lat="39.225220" lon="-6.939809">
        <ele>350.262</ele>
        <time>2020-02-20T10:25:38Z</time>
      </trkpt>
      <trkpt lat="39.225495" lon="-6.940225">
        <ele>351.938</ele>
        <time>2020-02-20T10:25:46Z</time>
      </trkpt>
      <trkpt lat="39.226042" lon="-6.940658">
        <ele>353.741</ele>
        <time>2020-02-20T10:25:59Z</time>
      </trkpt>
      <trkpt lat="39.226006" lon="-6.941205">
        <ele>357.681</ele>
        <time>2020-02-20T10:26:09Z</time>
      </trkpt>
      <trkpt lat="39.226530" lon="-6.943730">
        <ele>366.109</ele>
        <time>2020-02-20T10:27:02Z</time>
      </trkpt>
      <trkpt lat="39.226352" lon="-6.944943">
        <ele>368.008</ele>
        <time>2020-02-20T10:27:20Z</time>
      </trkpt>
      <trkpt lat="39.226085" lon="-6.945477">
        <ele>365.288</ele>
        <time>2020-02-20T10:27:32Z</time>
      </trkpt>
      <trkpt lat="39.225438" lon="-6.948000">
        <ele>366.130</ele>
        <time>2020-02-20T10:28:24Z</time>
      </trkpt>
      <trkpt lat="39.225152" lon="-6.949768">
        <ele>373.143</ele>
        <time>2020-02-20T10:29:01Z</time>
      </trkpt>
      <trkpt lat="39.224194" lon="-6.953004">
        <ele>377.854</ele>
        <time>2020-02-20T10:30:13Z</time>
      </trkpt>
      <trkpt lat="39.222982" lon="-6.954967">
        <ele>384.947</ele>
        <time>2020-02-20T10:30:55Z</time>
      </trkpt>
      <trkpt lat="39.222800" lon="-6.959443">
        <ele>392.342</ele>
        <time>2020-02-20T10:32:08Z</time>
      </trkpt>
      <trkpt lat="39.222644" lon="-6.960244">
        <ele>388.978</ele>
        <time>2020-02-20T10:32:32Z</time>
      </trkpt>
      <trkpt lat="39.222877" lon="-6.966859">
        <ele>376.954</ele>
        <time>2020-02-20T10:36:33Z</time>
      </trkpt>
      <trkpt lat="39.222575" lon="-6.968465">
        <ele>379.154</ele>
        <time>2020-02-20T10:37:07Z</time>
      </trkpt>
      <trkpt lat="39.222573" lon="-6.970002">
        <ele>384.656</ele>
        <time>2020-02-20T10:37:46Z</time>
      </trkpt>
      <trkpt lat="39.222197" lon="-6.970581">
        <ele>389.011</ele>
        <time>2020-02-20T10:38:05Z</time>
      </trkpt>
      <trkpt lat="39.222329" lon="-6.972107">
        <ele>393.408</ele>
        <time>2020-02-20T10:38:32Z</time>
      </trkpt>
      <trkpt lat="39.222251" lon="-6.973366">
        <ele>395.069</ele>
        <time>2020-02-20T10:38:55Z</time>
      </trkpt>
      <trkpt lat="39.222124" lon="-6.973953">
        <ele>395.931</ele>
        <time>2020-02-20T10:39:04Z</time>
      </trkpt>
      <trkpt lat="39.221893" lon="-6.974255">
        <ele>398.394</ele>
        <time>2020-02-20T10:39:13Z</time>
      </trkpt>
      <trkpt lat="39.222458" lon="-6.976553">
        <ele>406.545</ele>
        <time>2020-02-20T10:39:51Z</time>
      </trkpt>
      <trkpt lat="39.222308" lon="-6.977187">
        <ele>408.078</ele>
        <time>2020-02-20T10:40:02Z</time>
      </trkpt>
      <trkpt lat="39.221501" lon="-6.978703">
        <ele>408.673</ele>
        <time>2020-02-20T10:40:29Z</time>
      </trkpt>
      <trkpt lat="39.222061" lon="-6.980792">
        <ele>405.219</ele>
        <time>2020-02-20T10:41:03Z</time>
      </trkpt>
      <trkpt lat="39.221386" lon="-6.984114">
        <ele>408.045</ele>
        <time>2020-02-20T10:41:46Z</time>
      </trkpt>
      <trkpt lat="39.221694" lon="-6.986526">
        <ele>413.028</ele>
        <time>2020-02-20T10:42:14Z</time>
      </trkpt>
      <trkpt lat="39.221640" lon="-6.986727">
        <ele>414.189</ele>
        <time>2020-02-20T10:42:22Z</time>
      </trkpt>
      <trkpt lat="39.221135" lon="-6.986857">
        <ele>416.117</ele>
        <time>2020-02-20T10:42:29Z</time>
      </trkpt>
      <trkpt lat="39.220911" lon="-6.987079">
        <ele>417.208</ele>
        <time>2020-02-20T10:42:33Z</time>
      </trkpt>
      <trkpt lat="39.220183" lon="-6.989042">
        <ele>414.036</ele>
        <time>2020-02-20T10:43:09Z</time>
      </trkpt>
      <trkpt lat="39.219559" lon="-6.992148">
        <ele>413.198</ele>
        <time>2020-02-20T10:43:50Z</time>
      </trkpt>
      <trkpt lat="39.219653" lon="-6.992677">
        <ele>412.451</ele>
        <time>2020-02-20T10:44:11Z</time>
      </trkpt>
      <trkpt lat="39.21971261540175" lon="-6.992722749710084">
        <ele>423.37</ele>
      </trkpt>
      <trkpt lat="39.21965339295461" lon="-6.992702633142472">
        <ele>423.64</ele>
      </trkpt>
      <trkpt lat="39.21961495028674" lon="-6.992729455232621">
        <ele>423.56000000000006</ele>
      </trkpt>
      <trkpt lat="39.21958378054057" lon="-6.992804557085038">
        <ele>424.06000000000006</ele>
      </trkpt>
      <trkpt lat="39.21954" lon="-6.99305">
        <ele>424.63</ele>
      </trkpt>
      <trkpt lat="39.219525001880974" lon="-6.9937150005610285">
        <ele>425.51000000000005</ele>
      </trkpt>
      <trkpt lat="39.21951000000001" lon="-6.9943800000000005">
        <ele>426.08</ele>
      </trkpt>
      <trkpt lat="39.21942000000001" lon="-6.994770000000001">
        <ele>426.83000000000004</ele>
      </trkpt>
      <trkpt lat="39.21929" lon="-6.99537">
        <ele>428.12000000000006</ele>
      </trkpt>
      <trkpt lat="39.21907" lon="-6.99624">
        <ele>432.65000000000003</ele>
      </trkpt>
      <trkpt lat="39.21904" lon="-6.99645">
        <ele>433.31</ele>
      </trkpt>
      <trkpt lat="39.21853" lon="-6.996620000000001">
        <ele>437.71000000000004</ele>
      </trkpt>
      <trkpt lat="39.21848000000001" lon="-6.9966800000000005">
        <ele>438.06000000000006</ele>
      </trkpt>
      <trkpt lat="39.21833" lon="-6.99671">
        <ele>438.44000000000005</ele>
      </trkpt>
      <trkpt lat="39.21808" lon="-6.99685">
        <ele>440.44000000000005</ele>
      </trkpt>
      <trkpt lat="39.217800000000004" lon="-6.99711">
        <ele>440.98</ele>
      </trkpt>
      <trkpt lat="39.21763" lon="-6.99722">
        <ele>439.88000000000005</ele>
      </trkpt>
      <trkpt lat="39.217180000000006" lon="-6.99769">
        <ele>434.3</ele>
      </trkpt>
      <trkpt lat="39.2166" lon="-6.99844">
        <ele>425.91</ele>
      </trkpt>
      <trkpt lat="39.2166" lon="-6.998430000000001">
        <ele>426.00000000000006</ele>
      </trkpt>
      <trkpt lat="39.216480000000004" lon="-6.9985800000000005">
        <ele>423.43</ele>
      </trkpt>
      <trkpt lat="39.216240000000006" lon="-6.9987200000000005">
        <ele>417.6</ele>
      </trkpt>
      <trkpt lat="39.21603" lon="-6.9987200000000005">
        <ele>417.6</ele>
      </trkpt>
      <trkpt lat="39.215700000000005" lon="-6.998660000000001">
        <ele>413.06</ele>
      </trkpt>
      <trkpt lat="39.216100000000004" lon="-6.9991">
        <ele>418.18000000000006</ele>
      </trkpt>
      <trkpt lat="39.21645" lon="-6.9991900000000005">
        <ele>423.31</ele>
      </trkpt>
      <trkpt lat="39.21651000000001" lon="-6.99922">
        <ele>424.58</ele>
      </trkpt>
      <trkpt lat="39.21654" lon="-6.999280000000001">
        <ele>424.58</ele>
      </trkpt>
      <trkpt lat="39.216390000000004" lon="-6.999320000000001">
        <ele>421.19</ele>
      </trkpt>
      <trkpt lat="39.216260000000005" lon="-6.99945">
        <ele>421.19</ele>
      </trkpt>
      <trkpt lat="39.216190000000005" lon="-6.999670000000001">
        <ele>419.39000000000004</ele>
      </trkpt>
      <trkpt lat="39.216190000000005" lon="-6.9999">
        <ele>419.51000000000005</ele>
      </trkpt>
      <trkpt lat="39.216010000000004" lon="-7.000420000000001">
        <ele>419.80000000000007</ele>
      </trkpt>
      <trkpt lat="39.21594" lon="-7.00046">
        <ele>417.79</ele>
      </trkpt>
      <trkpt lat="39.21578" lon="-7.00072">
        <ele>415.95000000000005</ele>
      </trkpt>
      <trkpt lat="39.21567" lon="-7.00084">
        <ele>414.39000000000004</ele>
      </trkpt>
      <trkpt lat="39.21553" lon="-7.00107">
        <ele>412.47</ele>
      </trkpt>
      <trkpt lat="39.21535" lon="-7.00147">
        <ele>410.83000000000004</ele>
      </trkpt>
      <trkpt lat="39.215300000000006" lon="-7.002190000000001">
        <ele>408.84000000000003</ele>
      </trkpt>
      <trkpt lat="39.215410000000006" lon="-7.0028500000000005">
        <ele>407.31000000000006</ele>
      </trkpt>
      <trkpt lat="39.21556" lon="-7.00314">
        <ele>406.86000000000007</ele>
      </trkpt>
      <trkpt lat="39.21562" lon="-7.00332">
        <ele>406.86000000000007</ele>
      </trkpt>
      <trkpt lat="39.21566" lon="-7.00363">
        <ele>406.80000000000007</ele>
      </trkpt>
      <trkpt lat="39.21571" lon="-7.00386">
        <ele>406.74</ele>
      </trkpt>
      <trkpt lat="39.21591" lon="-7.00452">
        <ele>405.69000000000005</ele>
      </trkpt>
      <trkpt lat="39.216100000000004" lon="-7.00508">
        <ele>403.67</ele>
      </trkpt>
      <trkpt lat="39.21611" lon="-7.00518">
        <ele>403.06</ele>
      </trkpt>
      <trkpt lat="39.21604000000001" lon="-7.005700000000001">
        <ele>397.99</ele>
      </trkpt>
      <trkpt lat="39.21602" lon="-7.006100000000001">
        <ele>391.72</ele>
      </trkpt>
      <trkpt lat="39.21587000168428" lon="-7.0067300013978">
        <ele>385</ele>
      </trkpt>
      <trkpt lat="39.215720000000005" lon="-7.00736">
        <ele>378.91</ele>
      </trkpt>
      <trkpt lat="39.21567" lon="-7.007420000000001">
        <ele>378.31</ele>
      </trkpt>
      <trkpt lat="39.215680000000006" lon="-7.007420000000001">
        <ele>378.34</ele>
      </trkpt>
      <trkpt lat="39.215520000000005" lon="-7.007670000000001">
        <ele>376.92</ele>
      </trkpt>
      <trkpt lat="39.21553" lon="-7.007670000000001">
        <ele>376.95</ele>
      </trkpt>
      <trkpt lat="39.21538" lon="-7.0079400000000005">
        <ele>375.6</ele>
      </trkpt>
      <trkpt lat="39.215300000000006" lon="-7.00804">
        <ele>375.00000000000006</ele>
      </trkpt>
      <trkpt lat="39.21528" lon="-7.008290000000001">
        <ele>374.13</ele>
      </trkpt>
      <trkpt lat="39.21528" lon="-7.0084100000000005">
        <ele>374.13</ele>
      </trkpt>
      <trkpt lat="39.215340000000005" lon="-7.0087">
        <ele>372.34</ele>
      </trkpt>
      <trkpt lat="39.21538" lon="-7.00886">
        <ele>372.12</ele>
      </trkpt>
      <trkpt lat="39.21537" lon="-7.00907">
        <ele>370.65000000000003</ele>
      </trkpt>
      <trkpt lat="39.215300000000006" lon="-7.009570000000001">
        <ele>368.91</ele>
      </trkpt>
      <trkpt lat="39.21528" lon="-7.010000000000001">
        <ele>366.78000000000003</ele>
      </trkpt>
      <trkpt lat="39.215410000000006" lon="-7.01041">
        <ele>366.14</ele>
      </trkpt>
      <trkpt lat="39.215430000000005" lon="-7.01057">
        <ele>365.81</ele>
      </trkpt>
      <trkpt lat="39.21538" lon="-7.01083">
        <ele>362.83000000000004</ele>
      </trkpt>
      <trkpt lat="39.21538" lon="-7.010940000000001">
        <ele>362.18</ele>
      </trkpt>
      <trkpt lat="39.21538" lon="-7.01109">
        <ele>361.03000000000003</ele>
      </trkpt>
      <trkpt lat="39.215430000000005" lon="-7.011520000000001">
        <ele>357.83000000000004</ele>
      </trkpt>
      <trkpt lat="39.21544" lon="-7.01205">
        <ele>352.92</ele>
      </trkpt>
      <trkpt lat="39.21548000000001" lon="-7.01226">
        <ele>351.29</ele>
      </trkpt>
      <trkpt lat="39.215630000000004" lon="-7.0126800000000005">
        <ele>351.18000000000006</ele>
      </trkpt>
      <trkpt lat="39.215610000000005" lon="-7.01285">
        <ele>350.25</ele>
      </trkpt>
      <trkpt lat="39.215540000000004" lon="-7.0129600000000005">
        <ele>348.85</ele>
      </trkpt>
      <trkpt lat="39.21547" lon="-7.0132">
        <ele>347.53</ele>
      </trkpt>
      <trkpt lat="39.21538" lon="-7.01367">
        <ele>348.54</ele>
      </trkpt>
      <trkpt lat="39.21519500143229" lon="-7.01425000154611">
        <ele>349.52000000000004</ele>
      </trkpt>
      <trkpt lat="39.21501000000001" lon="-7.014830000000001">
        <ele>350.29</ele>
      </trkpt>
      <trkpt lat="39.214960000000005" lon="-7.01508">
        <ele>351.16</ele>
      </trkpt>
      <trkpt lat="39.21495" lon="-7.01599">
        <ele>352.88</ele>
      </trkpt>
      <trkpt lat="39.214920000000006" lon="-7.0162700000000005">
        <ele>351.33000000000004</ele>
      </trkpt>
      <trkpt lat="39.21488" lon="-7.01653">
        <ele>349.51000000000005</ele>
      </trkpt>
      <trkpt lat="39.214650000000006" lon="-7.017440000000001">
        <ele>346.7</ele>
      </trkpt>
      <trkpt lat="39.21463000000001" lon="-7.017650000000001">
        <ele>346.30000000000007</ele>
      </trkpt>
      <trkpt lat="39.21455" lon="-7.01801">
        <ele>345.67</ele>
      </trkpt>
      <trkpt lat="39.214310000000005" lon="-7.018580000000001">
        <ele>344.49</ele>
      </trkpt>
      <trkpt lat="39.214090000000006" lon="-7.018910000000001">
        <ele>342.11</ele>
      </trkpt>
      <trkpt lat="39.214040000000004" lon="-7.019050000000001">
        <ele>341.32</ele>
      </trkpt>
      <trkpt lat="39.214000000000006" lon="-7.019380000000001">
        <ele>339.07000000000005</ele>
      </trkpt>
      <trkpt lat="39.21385" lon="-7.020080000000001">
        <ele>334.32</ele>
      </trkpt>
      <trkpt lat="39.213840000000005" lon="-7.020320000000001">
        <ele>332.29</ele>
      </trkpt>
      <trkpt lat="39.213840000000005" lon="-7.020440000000001">
        <ele>331.17</ele>
      </trkpt>
      <trkpt lat="39.213860000000004" lon="-7.0205400000000004">
        <ele>330.36</ele>
      </trkpt>
      <trkpt lat="39.21397" lon="-7.020860000000001">
        <ele>328.11</ele>
      </trkpt>
      <trkpt lat="39.21403" lon="-7.021140000000001">
        <ele>325.56</ele>
      </trkpt>
      <trkpt lat="39.21399" lon="-7.021230000000001">
        <ele>324.62</ele>
      </trkpt>
      <trkpt lat="39.213930000000005" lon="-7.021700000000001">
        <ele>321.08000000000004</ele>
      </trkpt>
      <trkpt lat="39.213890000000006" lon="-7.022170000000001">
        <ele>318.43000000000006</ele>
      </trkpt>
      <trkpt lat="39.213820000000005" lon="-7.02249">
        <ele>317.06</ele>
      </trkpt>
      <trkpt lat="39.21372" lon="-7.0228">
        <ele>315.85</ele>
      </trkpt>
      <trkpt lat="39.213460000000005" lon="-7.023350000000001">
        <ele>314.21999999999997</ele>
      </trkpt>
      <trkpt lat="39.21341" lon="-7.02364">
        <ele>314.32000000000005</ele>
      </trkpt>
      <trkpt lat="39.21341" lon="-7.023770000000001">
        <ele>315.61</ele>
      </trkpt>
      <trkpt lat="39.213370000000005" lon="-7.0238700000000005">
        <ele>317.29</ele>
      </trkpt>
      <trkpt lat="39.213210000000004" lon="-7.02413">
        <ele>321.01</ele>
      </trkpt>
      <trkpt lat="39.21304000000001" lon="-7.024260000000001">
        <ele>320.17</ele>
      </trkpt>
      <trkpt lat="39.212450000000004" lon="-7.024490000000001">
        <ele>310.77000000000004</ele>
      </trkpt>
      <trkpt lat="39.212360000000004" lon="-7.024640000000001">
        <ele>309.58000000000004</ele>
      </trkpt>
      <trkpt lat="39.212300000000006" lon="-7.024800000000001">
        <ele>309.69</ele>
      </trkpt>
      <trkpt lat="39.212180000000004" lon="-7.025">
        <ele>308.8</ele>
      </trkpt>
      <trkpt lat="39.21206" lon="-7.0252300000000005">
        <ele>306.23</ele>
      </trkpt>
      <trkpt lat="39.21191" lon="-7.02545">
        <ele>305.78000000000003</ele>
      </trkpt>
      <trkpt lat="39.21188" lon="-7.025550000000001">
        <ele>306.59000000000003</ele>
      </trkpt>
      <trkpt lat="39.2119" lon="-7.025620000000001">
        <ele>307.26000000000005</ele>
      </trkpt>
      <trkpt lat="39.21179" lon="-7.025830000000001">
        <ele>308.51</ele>
      </trkpt>
      <trkpt lat="39.21144" lon="-7.026180000000001">
        <ele>306.73</ele>
      </trkpt>
      <trkpt lat="39.21126" lon="-7.026320000000001">
        <ele>303.97</ele>
      </trkpt>
      <trkpt lat="39.2111" lon="-7.026490000000001">
        <ele>302.83000000000004</ele>
      </trkpt>
      <trkpt lat="39.21097" lon="-7.0267100000000005">
        <ele>304.26000000000005</ele>
      </trkpt>
      <trkpt lat="39.21083" lon="-7.02681">
        <ele>303.16</ele>
      </trkpt>
      <trkpt lat="39.21074" lon="-7.0268500000000005">
        <ele>302.57</ele>
      </trkpt>
      <trkpt lat="39.2104" lon="-7.027240000000001">
        <ele>299.00000000000006</ele>
      </trkpt>
      <trkpt lat="39.210260000000005" lon="-7.02735">
        <ele>297.89000000000004</ele>
      </trkpt>
      <trkpt lat="39.2102" lon="-7.0277400000000005">
        <ele>298.13</ele>
      </trkpt>
      <trkpt lat="39.21009" lon="-7.0280000000000005">
        <ele>297.50000000000006</ele>
      </trkpt>
      <trkpt lat="39.209970000000006" lon="-7.028510000000001">
        <ele>298.02</ele>
      </trkpt>
      <trkpt lat="39.20985" lon="-7.028810000000001">
        <ele>298.99</ele>
      </trkpt>
      <trkpt lat="39.20971" lon="-7.02904">
        <ele>299.91</ele>
      </trkpt>
      <trkpt lat="39.20975" lon="-7.02908">
        <ele>300.33000000000004</ele>
      </trkpt>
      <trkpt lat="39.20969" lon="-7.02911">
        <ele>300.33000000000004</ele>
      </trkpt>
      <trkpt lat="39.209630000000004" lon="-7.0292">
        <ele>300.33000000000004</ele>
      </trkpt>
      <trkpt lat="39.20951" lon="-7.02941">
        <ele>302.22</ele>
      </trkpt>
      <trkpt lat="39.20942" lon="-7.0296">
        <ele>303.76000000000005</ele>
      </trkpt>
      <trkpt lat="39.209230000000005" lon="-7.03005">
        <ele>307.17</ele>
      </trkpt>
      <trkpt lat="39.20917" lon="-7.03033">
        <ele>309.99</ele>
      </trkpt>
      <trkpt lat="39.20909" lon="-7.030600000000001">
        <ele>312.31</ele>
      </trkpt>
      <trkpt lat="39.20904" lon="-7.0306500000000005">
        <ele>313.07</ele>
      </trkpt>
      <trkpt lat="39.20879" lon="-7.03073">
        <ele>314.66</ele>
      </trkpt>
      <trkpt lat="39.20857" lon="-7.030740000000001">
        <ele>314.65000000000003</ele>
      </trkpt>
      <trkpt lat="39.20848" lon="-7.0307900000000005">
        <ele>314.62</ele>
      </trkpt>
      <trkpt lat="39.208420000000004" lon="-7.03087">
        <ele>314.58000000000004</ele>
      </trkpt>
      <trkpt lat="39.20835" lon="-7.031090000000001">
        <ele>314.70000000000005</ele>
      </trkpt>
      <trkpt lat="39.20834" lon="-7.031200000000001">
        <ele>314.87</ele>
      </trkpt>
      <trkpt lat="39.208290000000005" lon="-7.03129">
        <ele>314.95</ele>
      </trkpt>
      <trkpt lat="39.20821" lon="-7.03176">
        <ele>315.17</ele>
      </trkpt>
      <trkpt lat="39.20802500127348" lon="-7.032310001506861">
        <ele>312.97</ele>
      </trkpt>
      <trkpt lat="39.207840000000004" lon="-7.03286">
        <ele>309.3</ele>
      </trkpt>
      <trkpt lat="39.207530000000006" lon="-7.033570000000001">
        <ele>304.33000000000004</ele>
      </trkpt>
      <trkpt lat="39.20723" lon="-7.03434">
        <ele>290.40999999999997</ele>
      </trkpt>
      <trkpt lat="39.206990000000005" lon="-7.0348500000000005">
        <ele>286.83000000000004</ele>
      </trkpt>
      <trkpt lat="39.206860000000006" lon="-7.035">
        <ele>287.3</ele>
      </trkpt>
      <trkpt lat="39.206285000476825" lon="-7.0353600029955095">
        <ele>289.04</ele>
      </trkpt>
      <trkpt lat="39.20571" lon="-7.03572">
        <ele>285.68000000000006</ele>
      </trkpt>
      <trkpt lat="39.205180000000006" lon="-7.036080000000001">
        <ele>282.19</ele>
      </trkpt>
      <trkpt lat="39.204640000434374" lon="-7.036410002556026">
        <ele>280.46000000000004</ele>
      </trkpt>
      <trkpt lat="39.204100000000004" lon="-7.036740000000001">
        <ele>278.2</ele>
      </trkpt>
      <trkpt lat="39.20382" lon="-7.036950000000001">
        <ele>277.55</ele>
      </trkpt>
      <trkpt lat="39.20374" lon="-7.037120000000001">
        <ele>277.55</ele>
      </trkpt>
      <trkpt lat="39.20371" lon="-7.037280000000001">
        <ele>277.64</ele>
      </trkpt>
      <trkpt lat="39.20362000191071" lon="-7.037955001140713">
        <ele>277.53</ele>
      </trkpt>
      <trkpt lat="39.20353" lon="-7.03863">
        <ele>279.5</ele>
      </trkpt>
      <trkpt lat="39.203480000000006" lon="-7.03894">
        <ele>280.7</ele>
      </trkpt>
      <trkpt lat="39.203450000000004" lon="-7.03903">
        <ele>281.07000000000005</ele>
      </trkpt>
      <trkpt lat="39.20331" lon="-7.039130000000001">
        <ele>281.46000000000004</ele>
      </trkpt>
      <trkpt lat="39.203250000000004" lon="-7.039210000000001">
        <ele>281.82</ele>
      </trkpt>
      <trkpt lat="39.20315" lon="-7.039300000000001">
        <ele>282.16</ele>
      </trkpt>
      <trkpt lat="39.20308" lon="-7.03934">
        <ele>282.2</ele>
      </trkpt>
      <trkpt lat="39.20284" lon="-7.03943">
        <ele>280.80000000000007</ele>
      </trkpt>
      <trkpt lat="39.202740000000006" lon="-7.03943">
        <ele>280.09</ele>
      </trkpt>
      <trkpt lat="39.20264" lon="-7.03941">
        <ele>279.49</ele>
      </trkpt>
      <trkpt lat="39.20241" lon="-7.03941">
        <ele>278.83000000000004</ele>
      </trkpt>
      <trkpt lat="39.202160000000006" lon="-7.039510000000001">
        <ele>279.52000000000004</ele>
      </trkpt>
      <trkpt lat="39.20168500033653" lon="-7.039660000938375">
        <ele>280.26</ele>
      </trkpt>
      <trkpt lat="39.20121" lon="-7.039810000000001">
        <ele>275.28000000000003</ele>
      </trkpt>
      <trkpt lat="39.200500000000005" lon="-7.03997">
        <ele>264.92</ele>
      </trkpt>
      <trkpt lat="39.20008" lon="-7.03995">
        <ele>260.42</ele>
      </trkpt>
      <trkpt lat="39.19995" lon="-7.03992">
        <ele>258.83</ele>
      </trkpt>
      <trkpt lat="39.199850000000005" lon="-7.039910000000001">
        <ele>257.84000000000003</ele>
      </trkpt>
      <trkpt lat="39.19977" lon="-7.039930000000001">
        <ele>257.34000000000003</ele>
      </trkpt>
      <trkpt lat="39.19971" lon="-7.039960000000001">
        <ele>257</ele>
      </trkpt>
      <trkpt lat="39.19971" lon="-7.04004">
        <ele>256.88</ele>
      </trkpt>
      <trkpt lat="39.199740000000006" lon="-7.04011">
        <ele>256.61</ele>
      </trkpt>
      <trkpt lat="39.19977" lon="-7.0402700000000005">
        <ele>256.42</ele>
      </trkpt>
      <trkpt lat="39.199760000000005" lon="-7.040590000000001">
        <ele>255.92000000000004</ele>
      </trkpt>
      <trkpt lat="39.199650000000005" lon="-7.041440000000001">
        <ele>251.94</ele>
      </trkpt>
      <trkpt lat="39.1995" lon="-7.041830000000001">
        <ele>250.82000000000005</ele>
      </trkpt>
      <trkpt lat="39.1995" lon="-7.041950000000001">
        <ele>250.19000000000003</ele>
      </trkpt>
      <trkpt lat="39.19957" lon="-7.042050000000001">
        <ele>249.62</ele>
      </trkpt>
      <trkpt lat="39.19975" lon="-7.042230000000001">
        <ele>249.19000000000003</ele>
      </trkpt>
      <trkpt lat="39.200430000000004" lon="-7.0427100000000005">
        <ele>251.60000000000005</ele>
      </trkpt>
      <trkpt lat="39.201080000000005" lon="-7.043290000000001">
        <ele>253.54000000000005</ele>
      </trkpt>
      <trkpt lat="39.201370000000004" lon="-7.04351">
        <ele>254.95000000000002</ele>
      </trkpt>
      <trkpt lat="39.20147" lon="-7.04361">
        <ele>255.82999999999998</ele>
      </trkpt>
      <trkpt lat="39.20177" lon="-7.04375">
        <ele>257.65000000000003</ele>
      </trkpt>
      <trkpt lat="39.202380000000005" lon="-7.0440000000000005">
        <ele>259.96000000000004</ele>
      </trkpt>
      <trkpt lat="39.20255" lon="-7.04405">
        <ele>260.23</ele>
      </trkpt>
      <trkpt lat="39.20266" lon="-7.044080000000001">
        <ele>260.19000000000005</ele>
      </trkpt>
      <trkpt lat="39.20304" lon="-7.044110000000001">
        <ele>260.67</ele>
      </trkpt>
      <trkpt lat="39.20329" lon="-7.04417">
        <ele>260.74</ele>
      </trkpt>
      <trkpt lat="39.2034" lon="-7.044160000000001">
        <ele>260.70000000000005</ele>
      </trkpt>
      <trkpt lat="39.20347" lon="-7.044200000000001">
        <ele>260.63</ele>
      </trkpt>
      <trkpt lat="39.20371" lon="-7.04445">
        <ele>259.08000000000004</ele>
      </trkpt>
      <trkpt lat="39.20411" lon="-7.044810000000001">
        <ele>256.81000000000006</ele>
      </trkpt>
      <trkpt lat="39.204495000581936" lon="-7.045214997654771">
        <ele>256.85</ele>
      </trkpt>
      <trkpt lat="39.20488" lon="-7.04562">
        <ele>257.94</ele>
      </trkpt>
      <trkpt lat="39.20497" lon="-7.04574">
        <ele>258.98</ele>
      </trkpt>
      <trkpt lat="39.2051" lon="-7.045870000000001">
        <ele>260.16</ele>
      </trkpt>
      <trkpt lat="39.20555000165191" lon="-7.046464996371295">
        <ele>264.75000000000006</ele>
      </trkpt>
      <trkpt lat="39.206" lon="-7.047060000000001">
        <ele>269</ele>
      </trkpt>
      <trkpt lat="39.206140000000005" lon="-7.04722">
        <ele>269.64000000000004</ele>
      </trkpt>
      <trkpt lat="39.20627" lon="-7.047280000000001">
        <ele>269.99</ele>
      </trkpt>
      <trkpt lat="39.20694" lon="-7.04745">
        <ele>271.08000000000004</ele>
      </trkpt>
      <trkpt lat="39.207510000000006" lon="-7.04755">
        <ele>272</ele>
      </trkpt>
      <trkpt lat="39.20767" lon="-7.0475900000000005">
        <ele>272.16</ele>
      </trkpt>
      <trkpt lat="39.207910000000005" lon="-7.047610000000001">
        <ele>272.55</ele>
      </trkpt>
      <trkpt lat="39.20814" lon="-7.047650000000001">
        <ele>273</ele>
      </trkpt>
      <trkpt lat="39.20821" lon="-7.047700000000001">
        <ele>273</ele>
      </trkpt>
      <trkpt lat="39.208360000000006" lon="-7.047890000000001">
        <ele>272.69000000000005</ele>
      </trkpt>
      <trkpt lat="39.20848" lon="-7.04804">
        <ele>272.38</ele>
      </trkpt>
      <trkpt lat="39.208960000000005" lon="-7.0484800000000005">
        <ele>271.59</ele>
      </trkpt>
      <trkpt lat="39.209050000000005" lon="-7.04858">
        <ele>271.97</ele>
      </trkpt>
      <trkpt lat="39.20911" lon="-7.048680000000001">
        <ele>272.56</ele>
      </trkpt>
      <trkpt lat="39.20922" lon="-7.048920000000001">
        <ele>273.67</ele>
      </trkpt>
      <trkpt lat="39.209300000000006" lon="-7.04919">
        <ele>274.97</ele>
      </trkpt>
      <trkpt lat="39.2094" lon="-7.049440000000001">
        <ele>275.61</ele>
      </trkpt>
      <trkpt lat="39.209430000000005" lon="-7.049570000000001">
        <ele>275.59</ele>
      </trkpt>
      <trkpt lat="39.209520000000005" lon="-7.0498">
        <ele>275.42</ele>
      </trkpt>
      <trkpt lat="39.209630000000004" lon="-7.05015">
        <ele>275.07000000000005</ele>
      </trkpt>
      <trkpt lat="39.209680000000006" lon="-7.050250000000001">
        <ele>274.56</ele>
      </trkpt>
      <trkpt lat="39.20998" lon="-7.05074">
        <ele>273.38</ele>
      </trkpt>
      <trkpt lat="39.21005" lon="-7.05083">
        <ele>272.85</ele>
      </trkpt>
      <trkpt lat="39.21041" lon="-7.051100000000001">
        <ele>272.3</ele>
      </trkpt>
      <trkpt lat="39.21049" lon="-7.051190000000001">
        <ele>271.87</ele>
      </trkpt>
      <trkpt lat="39.2107" lon="-7.051550000000001">
        <ele>270.12</ele>
      </trkpt>
      <trkpt lat="39.21101" lon="-7.05217">
        <ele>268.25000000000006</ele>
      </trkpt>
      <trkpt lat="39.211420000000004" lon="-7.05273">
        <ele>268.81000000000006</ele>
      </trkpt>
      <trkpt lat="39.211510000000004" lon="-7.0528200000000005">
        <ele>269.75000000000006</ele>
      </trkpt>
      <trkpt lat="39.21166" lon="-7.053050000000001">
        <ele>269.87</ele>
      </trkpt>
      <trkpt lat="39.2117" lon="-7.053160000000001">
        <ele>270.02000000000004</ele>
      </trkpt>
      <trkpt lat="39.21177" lon="-7.053520000000001">
        <ele>270.1</ele>
      </trkpt>
      <trkpt lat="39.21191" lon="-7.053920000000001">
        <ele>271.44</ele>
      </trkpt>
      <trkpt lat="39.21193" lon="-7.05409">
        <ele>272.1</ele>
      </trkpt>
      <trkpt lat="39.211940000000006" lon="-7.0543000000000005">
        <ele>272.28000000000003</ele>
      </trkpt>
      <trkpt lat="39.211980000000004" lon="-7.054480000000001">
        <ele>272.27</ele>
      </trkpt>
      <trkpt lat="39.21199" lon="-7.0546500000000005">
        <ele>272.23</ele>
      </trkpt>
      <trkpt lat="39.211980000000004" lon="-7.05473">
        <ele>271.66</ele>
      </trkpt>
      <trkpt lat="39.21201000000001" lon="-7.055020000000001">
        <ele>271.29</ele>
      </trkpt>
      <trkpt lat="39.212070000000004" lon="-7.055320000000001">
        <ele>271.11</ele>
      </trkpt>
      <trkpt lat="39.212450000000004" lon="-7.05578">
        <ele>268.53000000000003</ele>
      </trkpt>
      <trkpt lat="39.212810000000005" lon="-7.0561300000000005">
        <ele>263.29</ele>
      </trkpt>
      <trkpt lat="39.213150000000006" lon="-7.05649">
        <ele>260.68</ele>
      </trkpt>
      <trkpt lat="39.21336" lon="-7.05665">
        <ele>259.47</ele>
      </trkpt>
      <trkpt lat="39.21360000000001" lon="-7.05679">
        <ele>257.55</ele>
      </trkpt>
      <trkpt lat="39.213710000000006" lon="-7.056830000000001">
        <ele>256.77</ele>
      </trkpt>
      <trkpt lat="39.213840000000005" lon="-7.05684">
        <ele>256.34000000000003</ele>
      </trkpt>
      <trkpt lat="39.2141" lon="-7.056900000000001">
        <ele>255.21000000000004</ele>
      </trkpt>
      <trkpt lat="39.21443" lon="-7.056940000000001">
        <ele>254.59000000000003</ele>
      </trkpt>
      <trkpt lat="39.21459" lon="-7.056940000000001">
        <ele>255.36</ele>
      </trkpt>
      <trkpt lat="39.21493" lon="-7.0570200000000005">
        <ele>255.69000000000003</ele>
      </trkpt>
      <trkpt lat="39.215070000000004" lon="-7.057110000000001">
        <ele>255.52</ele>
      </trkpt>
      <trkpt lat="39.215210000000006" lon="-7.057250000000001">
        <ele>255.41000000000003</ele>
      </trkpt>
      <trkpt lat="39.215270000000004" lon="-7.057360000000001">
        <ele>254.97000000000003</ele>
      </trkpt>
      <trkpt lat="39.21546" lon="-7.057570000000001">
        <ele>253.35000000000002</ele>
      </trkpt>
      <trkpt lat="39.21564" lon="-7.057880000000001">
        <ele>252.58</ele>
      </trkpt>
      <trkpt lat="39.21575" lon="-7.0581000000000005">
        <ele>252.58</ele>
      </trkpt>
      <trkpt lat="39.21585" lon="-7.058350000000001">
        <ele>252.10999999999999</ele>
      </trkpt>
      <trkpt lat="39.21589" lon="-7.05848">
        <ele>251.97000000000003</ele>
      </trkpt>
      <trkpt lat="39.21603" lon="-7.05921">
        <ele>251.51000000000002</ele>
      </trkpt>
      <trkpt lat="39.21613" lon="-7.059480000000001">
        <ele>252.42000000000002</ele>
      </trkpt>
      <trkpt lat="39.216190000000005" lon="-7.059780000000001">
        <ele>252.26000000000005</ele>
      </trkpt>
      <trkpt lat="39.216240000000006" lon="-7.059940000000001">
        <ele>252.12</ele>
      </trkpt>
      <trkpt lat="39.216280000000005" lon="-7.06012">
        <ele>251.78</ele>
      </trkpt>
      <trkpt lat="39.21636" lon="-7.060320000000001">
        <ele>251.96</ele>
      </trkpt>
      <trkpt lat="39.21652" lon="-7.060670000000001">
        <ele>253.26000000000005</ele>
      </trkpt>
      <trkpt lat="39.21658" lon="-7.06073">
        <ele>253.25000000000003</ele>
      </trkpt>
      <trkpt lat="39.216680000000004" lon="-7.06094">
        <ele>254.19000000000003</ele>
      </trkpt>
      <trkpt lat="39.21679" lon="-7.06132">
        <ele>255.03000000000003</ele>
      </trkpt>
      <trkpt lat="39.216910000000006" lon="-7.061560000000001">
        <ele>256.51</ele>
      </trkpt>
      <trkpt lat="39.21701" lon="-7.061820000000001">
        <ele>257.83</ele>
      </trkpt>
      <trkpt lat="39.217150000000004" lon="-7.06207">
        <ele>258.8</ele>
      </trkpt>
      <trkpt lat="39.217650000000006" lon="-7.06273">
        <ele>265.94</ele>
      </trkpt>
      <trkpt lat="39.21775" lon="-7.0628400000000005">
        <ele>266.51</ele>
      </trkpt>
      <trkpt lat="39.217940000000006" lon="-7.062970000000001">
        <ele>269.46000000000004</ele>
      </trkpt>
      <trkpt lat="39.218160000000005" lon="-7.063250000000001">
        <ele>272.37</ele>
      </trkpt>
      <trkpt lat="39.21831" lon="-7.063400000000001">
        <ele>273.09</ele>
      </trkpt>
      <trkpt lat="39.21851" lon="-7.06341">
        <ele>273.49</ele>
      </trkpt>
      <trkpt lat="39.21875" lon="-7.0635">
        <ele>274</ele>
      </trkpt>
      <trkpt lat="39.21950000048232" lon="-7.063859996119585">
        <ele>274.64</ele>
      </trkpt>
      <trkpt lat="39.22025" lon="-7.064220000000001">
        <ele>275</ele>
      </trkpt>
      <trkpt lat="39.2203" lon="-7.064260000000001">
        <ele>274.72</ele>
      </trkpt>
      <trkpt lat="39.22041" lon="-7.064310000000001">
        <ele>274.87</ele>
      </trkpt>
      <trkpt lat="39.220580000000005" lon="-7.06442">
        <ele>275.15</ele>
      </trkpt>
      <trkpt lat="39.22082" lon="-7.0647">
        <ele>274.89000000000004</ele>
      </trkpt>
      <trkpt lat="39.2211" lon="-7.06493">
        <ele>273.1</ele>
      </trkpt>
      <trkpt lat="39.22129" lon="-7.065060000000001">
        <ele>269.64000000000004</ele>
      </trkpt>
      <trkpt lat="39.22167" lon="-7.065230000000001">
        <ele>265.08000000000004</ele>
      </trkpt>
      <trkpt lat="39.221880000000006" lon="-7.06524">
        <ele>263.23</ele>
      </trkpt>
      <trkpt lat="39.221990000000005" lon="-7.065250000000001">
        <ele>262.03000000000003</ele>
      </trkpt>
      <trkpt lat="39.22238" lon="-7.065150000000001">
        <ele>259.69000000000005</ele>
      </trkpt>
      <trkpt lat="39.22249" lon="-7.0650900000000005">
        <ele>259.27</ele>
      </trkpt>
      <trkpt lat="39.222730000000006" lon="-7.064870000000001">
        <ele>260.05</ele>
      </trkpt>
      <trkpt lat="39.22288" lon="-7.064680000000001">
        <ele>261.19000000000005</ele>
      </trkpt>
      <trkpt lat="39.223090000000006" lon="-7.064470000000001">
        <ele>263.58000000000004</ele>
      </trkpt>
      <trkpt lat="39.22314" lon="-7.064400000000001">
        <ele>263.8</ele>
      </trkpt>
      <trkpt lat="39.223220000000005" lon="-7.064330000000001">
        <ele>265</ele>
      </trkpt>
      <trkpt lat="39.223600000000005" lon="-7.064070000000001">
        <ele>265.90000000000003</ele>
      </trkpt>
      <trkpt lat="39.223800000000004" lon="-7.06402">
        <ele>265.14000000000004</ele>
      </trkpt>
      <trkpt lat="39.22392" lon="-7.064070000000001">
        <ele>264.40000000000003</ele>
      </trkpt>
      <trkpt lat="39.22419" lon="-7.064290000000001">
        <ele>260.25000000000006</ele>
      </trkpt>
      <trkpt lat="39.22457000066988" lon="-7.064659998079282">
        <ele>260.07</ele>
      </trkpt>
      <trkpt lat="39.22495" lon="-7.06503">
        <ele>262.37000000000006</ele>
      </trkpt>
      <trkpt lat="39.22531" lon="-7.065510000000001">
        <ele>264.37</ele>
      </trkpt>
      <trkpt lat="39.225500000000004" lon="-7.065810000000001">
        <ele>263.48</ele>
      </trkpt>
      <trkpt lat="39.22579" lon="-7.0663800000000005">
        <ele>261.40000000000003</ele>
      </trkpt>
      <trkpt lat="39.22592" lon="-7.0665700000000005">
        <ele>260.43</ele>
      </trkpt>
      <trkpt lat="39.2263" lon="-7.067050000000001">
        <ele>260.98</ele>
      </trkpt>
      <trkpt lat="39.22637" lon="-7.06716">
        <ele>260.87000000000006</ele>
      </trkpt>
      <trkpt lat="39.22641" lon="-7.067330000000001">
        <ele>259.85</ele>
      </trkpt>
      <trkpt lat="39.22646" lon="-7.06737">
        <ele>259.47</ele>
      </trkpt>
      <trkpt lat="39.226800000000004" lon="-7.067410000000001">
        <ele>259.75000000000006</ele>
      </trkpt>
      <trkpt lat="39.22753" lon="-7.067730000000001">
        <ele>259.61</ele>
      </trkpt>
      <trkpt lat="39.227790000000006" lon="-7.067810000000001">
        <ele>259.39</ele>
      </trkpt>
      <trkpt lat="39.22793" lon="-7.06784">
        <ele>259.33</ele>
      </trkpt>
      <trkpt lat="39.22811" lon="-7.067830000000001">
        <ele>259.73</ele>
      </trkpt>
      <trkpt lat="39.22818" lon="-7.06784">
        <ele>259.96000000000004</ele>
      </trkpt>
      <trkpt lat="39.228530000000006" lon="-7.0679300000000005">
        <ele>261.76000000000005</ele>
      </trkpt>
      <trkpt lat="39.228820000000006" lon="-7.067970000000001">
        <ele>263.71</ele>
      </trkpt>
      <trkpt lat="39.228910000000006" lon="-7.068010000000001">
        <ele>263.71</ele>
      </trkpt>
      <trkpt lat="39.229150000000004" lon="-7.06805">
        <ele>263.79</ele>
      </trkpt>
      <trkpt lat="39.229690000000005" lon="-7.0681">
        <ele>264.17</ele>
      </trkpt>
      <trkpt lat="39.229780000000005" lon="-7.06808">
        <ele>264.11</ele>
      </trkpt>
      <trkpt lat="39.229940000000006" lon="-7.06798">
        <ele>263.77</ele>
      </trkpt>
      <trkpt lat="39.22999" lon="-7.06791">
        <ele>263.85</ele>
      </trkpt>
      <trkpt lat="39.230070000000005" lon="-7.067870000000001">
        <ele>263.94</ele>
      </trkpt>
      <trkpt lat="39.23026" lon="-7.06768">
        <ele>264.1</ele>
      </trkpt>
      <trkpt lat="39.23037" lon="-7.06749">
        <ele>263.51</ele>
      </trkpt>
      <trkpt lat="39.230470000000004" lon="-7.067380000000001">
        <ele>262.78000000000003</ele>
      </trkpt>
      <trkpt lat="39.23057" lon="-7.067290000000001">
        <ele>262.64000000000004</ele>
      </trkpt>
      <trkpt lat="39.230740000000004" lon="-7.067200000000001">
        <ele>260.5</ele>
      </trkpt>
      <trkpt lat="39.23086" lon="-7.067190000000001">
        <ele>259.99</ele>
      </trkpt>
      <trkpt lat="39.23109" lon="-7.067190000000001">
        <ele>258.24</ele>
      </trkpt>
      <trkpt lat="39.23154" lon="-7.06714">
        <ele>257.70000000000005</ele>
      </trkpt>
      <trkpt lat="39.23163" lon="-7.067150000000001">
        <ele>257.39</ele>
      </trkpt>
      <trkpt lat="39.23181" lon="-7.067200000000001">
        <ele>256.78000000000003</ele>
      </trkpt>
      <trkpt lat="39.231970000000004" lon="-7.067150000000001">
        <ele>256.84000000000003</ele>
      </trkpt>
      <trkpt lat="39.23208" lon="-7.067150000000001">
        <ele>257</ele>
      </trkpt>
      <trkpt lat="39.23225" lon="-7.067170000000001">
        <ele>257.77</ele>
      </trkpt>
      <trkpt lat="39.232530000000004" lon="-7.06728">
        <ele>258.55</ele>
      </trkpt>
      <trkpt lat="39.2327" lon="-7.06728">
        <ele>258.81000000000006</ele>
      </trkpt>
      <trkpt lat="39.23295" lon="-7.067360000000001">
        <ele>258.79</ele>
      </trkpt>
      <trkpt lat="39.23304" lon="-7.06737">
        <ele>258.59999999999997</ele>
      </trkpt>
      <trkpt lat="39.23312000000001" lon="-7.067340000000001">
        <ele>258.61</ele>
      </trkpt>
      <trkpt lat="39.23317" lon="-7.06728">
        <ele>258.89</ele>
      </trkpt>
      <trkpt lat="39.233430000000006" lon="-7.066940000000001">
        <ele>260.63</ele>
      </trkpt>
      <trkpt lat="39.233520000000006" lon="-7.0667800000000005">
        <ele>260.94</ele>
      </trkpt>
      <trkpt lat="39.233610000000006" lon="-7.06653">
        <ele>261.79</ele>
      </trkpt>
      <trkpt lat="39.233700000000006" lon="-7.066400000000001">
        <ele>262.75000000000006</ele>
      </trkpt>
      <trkpt lat="39.23382" lon="-7.066140000000001">
        <ele>263.72</ele>
      </trkpt>
      <trkpt lat="39.23411" lon="-7.065900000000001">
        <ele>265.18</ele>
      </trkpt>
      <trkpt lat="39.234280000000005" lon="-7.0657700000000006">
        <ele>266.17</ele>
      </trkpt>
      <trkpt lat="39.23438" lon="-7.065670000000001">
        <ele>266.68</ele>
      </trkpt>
      <trkpt lat="39.23442" lon="-7.06561">
        <ele>267.03000000000003</ele>
      </trkpt>
      <trkpt lat="39.23443" lon="-7.065550000000001">
        <ele>267.23</ele>
      </trkpt>
      <trkpt lat="39.23453000000001" lon="-7.065370000000001">
        <ele>267.63000000000005</ele>
      </trkpt>
      <trkpt lat="39.23471" lon="-7.06517">
        <ele>268.34000000000003</ele>
      </trkpt>
      <trkpt lat="39.234750000000005" lon="-7.065130000000001">
        <ele>268.34000000000003</ele>
      </trkpt>
      <trkpt lat="39.23499" lon="-7.065">
        <ele>268.68</ele>
      </trkpt>
      <trkpt lat="39.23523" lon="-7.064820000000001">
        <ele>268.90000000000003</ele>
      </trkpt>
      <trkpt lat="39.235290000000006" lon="-7.064750000000001">
        <ele>269.07000000000005</ele>
      </trkpt>
      <trkpt lat="39.23541" lon="-7.06465">
        <ele>270.6</ele>
      </trkpt>
      <trkpt lat="39.235510000000005" lon="-7.064520000000001">
        <ele>271.92</ele>
      </trkpt>
      <trkpt lat="39.23563" lon="-7.064400000000001">
        <ele>273.66</ele>
      </trkpt>
      <trkpt lat="39.235800000000005" lon="-7.064170000000001">
        <ele>275.96000000000004</ele>
      </trkpt>
      <trkpt lat="39.236050000000006" lon="-7.06385">
        <ele>280.36</ele>
      </trkpt>
      <trkpt lat="39.23617" lon="-7.0636600000000005">
        <ele>282.85</ele>
      </trkpt>
      <trkpt lat="39.23635" lon="-7.063490000000001">
        <ele>284.78000000000003</ele>
      </trkpt>
      <trkpt lat="39.23641000000001" lon="-7.06341">
        <ele>285.36</ele>
      </trkpt>
      <trkpt lat="39.23644" lon="-7.06334">
        <ele>285.82</ele>
      </trkpt>
      <trkpt lat="39.236430000000006" lon="-7.0632600000000005">
        <ele>285.8</ele>
      </trkpt>
      <trkpt lat="39.23635" lon="-7.063110000000001">
        <ele>285.71000000000004</ele>
      </trkpt>
      <trkpt lat="39.23622" lon="-7.06296">
        <ele>285.82</ele>
      </trkpt>
      <trkpt lat="39.23606" lon="-7.062690000000001">
        <ele>286.93</ele>
      </trkpt>
      <trkpt lat="39.235870000000006" lon="-7.06233">
        <ele>288.5</ele>
      </trkpt>
      <trkpt lat="39.235820000000004" lon="-7.062220000000001">
        <ele>289.09000000000003</ele>
      </trkpt>
      <trkpt lat="39.23583" lon="-7.06205">
        <ele>290.22</ele>
      </trkpt>
      <trkpt lat="39.23588" lon="-7.0619000000000005">
        <ele>291.02</ele>
      </trkpt>
      <trkpt lat="39.23593" lon="-7.06158">
        <ele>294.67</ele>
      </trkpt>
      <trkpt lat="39.23601" lon="-7.06137">
        <ele>296.08</ele>
      </trkpt>
      <trkpt lat="39.236090000000004" lon="-7.06141">
        <ele>308.42</ele>
      </trkpt>
      <trkpt lat="39.236320000000006" lon="-7.06146">
        <ele>308.42</ele>
      </trkpt>
      <trkpt lat="39.2369599999049" lon="-7.061355000981159">
        <ele>308.42</ele>
      </trkpt>
      <trkpt lat="39.2376" lon="-7.06125">
        <ele>301.81</ele>
      </trkpt>
      <trkpt lat="39.23798" lon="-7.0612900000000005">
        <ele>301.81</ele>
      </trkpt>
      <trkpt lat="39.2385" lon="-7.06155">
        <ele>301.81</ele>
      </trkpt>
      <trkpt lat="39.238670000000006" lon="-7.06146">
        <ele>301.81</ele>
      </trkpt>
      <trkpt lat="39.238730000000004" lon="-7.06141">
        <ele>301.81</ele>
      </trkpt>
      <trkpt lat="39.23854500119678" lon="-7.060869998430316">
        <ele>301.52</ele>
      </trkpt>
      <trkpt lat="39.23836" lon="-7.06033">
        <ele>301.95000000000005</ele>
      </trkpt>
      <trkpt lat="39.238290000000006" lon="-7.059740000000001">
        <ele>305.43</ele>
      </trkpt>
      <trkpt lat="39.238350000000004" lon="-7.05883">
        <ele>309.29</ele>
      </trkpt>
      <trkpt lat="39.23825" lon="-7.057910000000001">
        <ele>316.38000000000005</ele>
      </trkpt>
      <trkpt lat="39.23827" lon="-7.0568800000000005">
        <ele>321.8</ele>
      </trkpt>
      <trkpt lat="39.23838000000001" lon="-7.05639">
        <ele>323.33</ele>
      </trkpt>
      <trkpt lat="39.23894000000001" lon="-7.05555">
        <ele>325.34000000000003</ele>
      </trkpt>
      <trkpt lat="39.239110000000004" lon="-7.05496">
        <ele>327.38</ele>
      </trkpt>
      <trkpt lat="39.23906" lon="-7.05426">
        <ele>332.04</ele>
      </trkpt>
      <trkpt lat="39.23893" lon="-7.05341">
        <ele>336.59</ele>
      </trkpt>
      <trkpt lat="39.23892" lon="-7.05278">
        <ele>340.04</ele>
      </trkpt>
      <trkpt lat="39.23864667255582" lon="-7.05194999352794">
        <ele>343.38</ele>
      </trkpt>
      <trkpt lat="39.23837333922096" lon="-7.051119993523429">
        <ele>345</ele>
      </trkpt>
      <trkpt lat="39.2381" lon="-7.05029">
        <ele>347.34000000000003</ele>
      </trkpt>
      <trkpt lat="39.23789" lon="-7.04947">
        <ele>351.6</ele>
      </trkpt>
      <trkpt lat="39.23771" lon="-7.04844">
        <ele>355.17</ele>
      </trkpt>
      <trkpt lat="39.23751" lon="-7.0478000000000005">
        <ele>355.92</ele>
      </trkpt>
      <trkpt lat="39.237385002284896" lon="-7.047074998926694">
        <ele>355.92</ele>
      </trkpt>
      <trkpt lat="39.237260000000006" lon="-7.04635">
        <ele>355.94000000000005</ele>
      </trkpt>
      <trkpt lat="39.236940000000004" lon="-7.04562">
        <ele>356.19</ele>
      </trkpt>
      <trkpt lat="39.23684" lon="-7.0448200000000005">
        <ele>359.95000000000005</ele>
      </trkpt>
      <trkpt lat="39.236700000000006" lon="-7.04429">
        <ele>360.90000000000003</ele>
      </trkpt>
      <trkpt lat="39.23664" lon="-7.04361">
        <ele>361.19</ele>
      </trkpt>
      <trkpt lat="39.236700000000006" lon="-7.04267">
        <ele>361.99</ele>
      </trkpt>
      <trkpt lat="39.236540000000005" lon="-7.0417700000000005">
        <ele>362.92</ele>
      </trkpt>
      <trkpt lat="39.23631000202783" lon="-7.041079997715092">
        <ele>361.82000000000005</ele>
      </trkpt>
      <trkpt lat="39.23608" lon="-7.04039">
        <ele>360.93</ele>
      </trkpt>
      <trkpt lat="39.23588" lon="-7.0395">
        <ele>361.37</ele>
      </trkpt>
      <trkpt lat="39.23570000136608" lon="-7.038934998554569">
        <ele>363.02</ele>
      </trkpt>
      <trkpt lat="39.23552" lon="-7.0383700000000005">
        <ele>364.76000000000005</ele>
      </trkpt>
      <trkpt lat="39.235200000000006" lon="-7.037640000000001">
        <ele>367.28000000000003</ele>
      </trkpt>
      <trkpt lat="39.234690003796025" lon="-7.036694993090607">
        <ele>370.68</ele>
      </trkpt>
      <trkpt lat="39.23418" lon="-7.03575">
        <ele>375.25</ele>
      </trkpt>
      <trkpt lat="39.23389" lon="-7.03542">
        <ele>376.91</ele>
      </trkpt>
      <trkpt lat="39.23416" lon="-7.0349900000000005">
        <ele>378.08000000000004</ele>
      </trkpt>
      <trkpt lat="39.234370000000006" lon="-7.03474">
        <ele>376.96000000000004</ele>
      </trkpt>
      <trkpt lat="39.234770000000005" lon="-7.0345200000000006">
        <ele>377.04</ele>
      </trkpt>
      <trkpt lat="39.234930000000006" lon="-7.0343100000000005">
        <ele>378.11000000000007</ele>
      </trkpt>
      <trkpt lat="39.235240000000005" lon="-7.033440000000001">
        <ele>383.64000000000004</ele>
      </trkpt>
      <trkpt lat="39.235490000000006" lon="-7.033370000000001">
        <ele>383.84000000000003</ele>
      </trkpt>
      <trkpt lat="39.235690000000005" lon="-7.03335">
        <ele>383.71000000000004</ele>
      </trkpt>
      <trkpt lat="39.236290000000004" lon="-7.0328100000000004">
        <ele>381.17</ele>
      </trkpt>
      <trkpt lat="39.23653" lon="-7.03256">
        <ele>380.13</ele>
      </trkpt>
      <trkpt lat="39.236630000000005" lon="-7.03253">
        <ele>380.06</ele>
      </trkpt>
      <trkpt lat="39.23677" lon="-7.0326">
        <ele>380.12</ele>
      </trkpt>
      <trkpt lat="39.2368" lon="-7.03274">
        <ele>380.28</ele>
      </trkpt>
      <trkpt lat="39.23691" lon="-7.03291">
        <ele>380.93000000000006</ele>
      </trkpt>
      <trkpt lat="39.2372" lon="-7.03298">
        <ele>381.88000000000005</ele>
      </trkpt>
      <trkpt lat="39.23749" lon="-7.0328800000000005">
        <ele>381.67</ele>
      </trkpt>
      <trkpt lat="39.23765" lon="-7.0326900000000006">
        <ele>380.23</ele>
      </trkpt>
      <trkpt lat="39.2378" lon="-7.032760000000001">
        <ele>379.25</ele>
      </trkpt>
      <trkpt lat="39.238060000000004" lon="-7.03312">
        <ele>376.98</ele>
      </trkpt>
      <trkpt lat="39.238330000000005" lon="-7.0331600000000005">
        <ele>377.02000000000004</ele>
      </trkpt>
      <trkpt lat="39.238710000000005" lon="-7.033">
        <ele>376.66</ele>
      </trkpt>
      <trkpt lat="39.238730000000004" lon="-7.03291">
        <ele>376.66</ele>
      </trkpt>
      <trkpt lat="39.23888" lon="-7.03279">
        <ele>376.51</ele>
      </trkpt>
      <trkpt lat="39.23912" lon="-7.03286">
        <ele>376.51</ele>
      </trkpt>
      <trkpt lat="39.239360000000005" lon="-7.032830000000001">
        <ele>376.64000000000004</ele>
      </trkpt>
      <trkpt lat="39.239540000000005" lon="-7.0326900000000006">
        <ele>375.8</ele>
      </trkpt>
      <trkpt lat="39.23962" lon="-7.0325500000000005">
        <ele>374.9</ele>
      </trkpt>
      <trkpt lat="39.23991" lon="-7.03246">
        <ele>372.09000000000003</ele>
      </trkpt>
      <trkpt lat="39.2404" lon="-7.03204">
        <ele>366.49</ele>
      </trkpt>
      <trkpt lat="39.24067" lon="-7.03178">
        <ele>363.08</ele>
      </trkpt>
      <trkpt lat="39.240750000000006" lon="-7.031650000000001">
        <ele>362.28000000000003</ele>
      </trkpt>
      <trkpt lat="39.24081" lon="-7.0314000000000005">
        <ele>362.14</ele>
      </trkpt>
      <trkpt lat="39.24089" lon="-7.031250000000001">
        <ele>362.14</ele>
      </trkpt>
      <trkpt lat="39.240880000000004" lon="-7.031070000000001">
        <ele>362.13</ele>
      </trkpt>
      <trkpt lat="39.240970000000004" lon="-7.03082">
        <ele>361.53000000000003</ele>
      </trkpt>
      <trkpt lat="39.24121" lon="-7.030450000000001">
        <ele>361.32000000000005</ele>
      </trkpt>
      <trkpt lat="39.241290000000006" lon="-7.03035">
        <ele>361.74</ele>
      </trkpt>
      <trkpt lat="39.24172" lon="-7.03019">
        <ele>361.56000000000006</ele>
      </trkpt>
      <trkpt lat="39.241870000000006" lon="-7.0301100000000005">
        <ele>361.12000000000006</ele>
      </trkpt>
      <trkpt lat="39.241960000000006" lon="-7.030100000000001">
        <ele>360.33000000000004</ele>
      </trkpt>
      <trkpt lat="39.24248" lon="-7.03026">
        <ele>355.43</ele>
      </trkpt>
      <trkpt lat="39.243010000000005" lon="-7.030200000000001">
        <ele>353.72</ele>
      </trkpt>
      <trkpt lat="39.24313" lon="-7.030170000000001">
        <ele>353.46000000000004</ele>
      </trkpt>
      <trkpt lat="39.24333" lon="-7.030060000000001">
        <ele>352.77000000000004</ele>
      </trkpt>
      <trkpt lat="39.24349" lon="-7.03007">
        <ele>351.95000000000005</ele>
      </trkpt>
      <trkpt lat="39.243610000000004" lon="-7.02995">
        <ele>352</ele>
      </trkpt>
      <trkpt lat="39.243700000000004" lon="-7.029780000000001">
        <ele>352.17</ele>
      </trkpt>
      <trkpt lat="39.2438" lon="-7.029710000000001">
        <ele>351.95000000000005</ele>
      </trkpt>
      <trkpt lat="39.243880000000004" lon="-7.029680000000001">
        <ele>351.95000000000005</ele>
      </trkpt>
      <trkpt lat="39.244" lon="-7.029710000000001">
        <ele>351.09000000000003</ele>
      </trkpt>
      <trkpt lat="39.24407" lon="-7.02969">
        <ele>350.95000000000005</ele>
      </trkpt>
      <trkpt lat="39.244130000000006" lon="-7.02967">
        <ele>350.59000000000003</ele>
      </trkpt>
      <trkpt lat="39.244310000000006" lon="-7.029540000000001">
        <ele>350.01000000000005</ele>
      </trkpt>
      <trkpt lat="39.24436" lon="-7.02948">
        <ele>349.96000000000004</ele>
      </trkpt>
      <trkpt lat="39.244420000000005" lon="-7.029280000000001">
        <ele>350.32</ele>
      </trkpt>
      <trkpt lat="39.244420000000005" lon="-7.029170000000001">
        <ele>350.61</ele>
      </trkpt>
      <trkpt lat="39.24445" lon="-7.029050000000001">
        <ele>350.74000000000007</ele>
      </trkpt>
      <trkpt lat="39.24466" lon="-7.028910000000001">
        <ele>350.40000000000003</ele>
      </trkpt>
      <trkpt lat="39.24494" lon="-7.02885">
        <ele>349.65000000000003</ele>
      </trkpt>
      <trkpt lat="39.24517" lon="-7.028720000000001">
        <ele>349.03</ele>
      </trkpt>
      <trkpt lat="39.245520000000006" lon="-7.028390000000001">
        <ele>349.32</ele>
      </trkpt>
      <trkpt lat="39.245630000000006" lon="-7.02824">
        <ele>349.59000000000003</ele>
      </trkpt>
      <trkpt lat="39.24570000000001" lon="-7.02819">
        <ele>349.80000000000007</ele>
      </trkpt>
      <trkpt lat="39.245760000000004" lon="-7.028090000000001">
        <ele>349.80000000000007</ele>
      </trkpt>
      <trkpt lat="39.24593" lon="-7.027940000000001">
        <ele>351.07000000000005</ele>
      </trkpt>
      <trkpt lat="39.24615" lon="-7.027710000000001">
        <ele>350.74000000000007</ele>
      </trkpt>
      <trkpt lat="39.246190000000006" lon="-7.02763">
        <ele>350.62000000000006</ele>
      </trkpt>
      <trkpt lat="39.246340000000004" lon="-7.02737">
        <ele>350.1</ele>
      </trkpt>
      <trkpt lat="39.24662" lon="-7.026630000000001">
        <ele>347.1</ele>
      </trkpt>
      <trkpt lat="39.24682000000001" lon="-7.026260000000001">
        <ele>344.28000000000003</ele>
      </trkpt>
      <trkpt lat="39.247" lon="-7.02587">
        <ele>342.16</ele>
      </trkpt>
      <trkpt lat="39.247040000000005" lon="-7.025580000000001">
        <ele>340.71</ele>
      </trkpt>
      <trkpt lat="39.24714" lon="-7.025370000000001">
        <ele>339.4200000000001</ele>
      </trkpt>
      <trkpt lat="39.24716" lon="-7.02519">
        <ele>338.61</ele>
      </trkpt>
      <trkpt lat="39.24728" lon="-7.025110000000001">
        <ele>337.86000000000007</ele>
      </trkpt>
      <trkpt lat="39.24734" lon="-7.025080000000001">
        <ele>337.64000000000004</ele>
      </trkpt>
      <trkpt lat="39.247350000000004" lon="-7.0250200000000005">
        <ele>337.33</ele>
      </trkpt>
      <trkpt lat="39.247330000000005" lon="-7.02491">
        <ele>337.13000000000005</ele>
      </trkpt>
      <trkpt lat="39.24738" lon="-7.0247">
        <ele>336.28000000000003</ele>
      </trkpt>
      <trkpt lat="39.247400000000006" lon="-7.0244800000000005">
        <ele>335.85</ele>
      </trkpt>
      <trkpt lat="39.24748" lon="-7.024360000000001">
        <ele>335.37</ele>
      </trkpt>
      <trkpt lat="39.24752" lon="-7.02432">
        <ele>335.19000000000005</ele>
      </trkpt>
      <trkpt lat="39.24756" lon="-7.024380000000001">
        <ele>335.12</ele>
      </trkpt>
      <trkpt lat="39.247710000000005" lon="-7.024470000000001">
        <ele>334.92</ele>
      </trkpt>
      <trkpt lat="39.24785" lon="-7.02465">
        <ele>335.25000000000006</ele>
      </trkpt>
      <trkpt lat="39.24813" lon="-7.024870000000001">
        <ele>335.31000000000006</ele>
      </trkpt>
      <trkpt lat="39.248200000000004" lon="-7.024900000000001">
        <ele>335.31000000000006</ele>
      </trkpt>
      <trkpt lat="39.248250000000006" lon="-7.02486">
        <ele>335.39</ele>
      </trkpt>
      <trkpt lat="39.24824" lon="-7.02477">
        <ele>335.45000000000005</ele>
      </trkpt>
      <trkpt lat="39.24819" lon="-7.024680000000001">
        <ele>335.39</ele>
      </trkpt>
      <trkpt lat="39.24813" lon="-7.02446">
        <ele>335.27</ele>
      </trkpt>
      <trkpt lat="39.24808" lon="-7.024380000000001">
        <ele>335.27</ele>
      </trkpt>
      <trkpt lat="39.248020000000004" lon="-7.024220000000001">
        <ele>335.17</ele>
      </trkpt>
      <trkpt lat="39.24794" lon="-7.02406">
        <ele>335.20000000000005</ele>
      </trkpt>
      <trkpt lat="39.24776000000001" lon="-7.023840000000001">
        <ele>335.37</ele>
      </trkpt>
      <trkpt lat="39.24765" lon="-7.023540000000001">
        <ele>336.38</ele>
      </trkpt>
      <trkpt lat="39.24757" lon="-7.02343">
        <ele>336.67</ele>
      </trkpt>
      <trkpt lat="39.247510000000005" lon="-7.02329">
        <ele>336.76</ele>
      </trkpt>
      <trkpt lat="39.247220000000006" lon="-7.0224400000000005">
        <ele>339.68</ele>
      </trkpt>
      <trkpt lat="39.24714" lon="-7.022270000000001">
        <ele>340.51000000000005</ele>
      </trkpt>
      <trkpt lat="39.247110000000006" lon="-7.022050000000001">
        <ele>341.40000000000003</ele>
      </trkpt>
      <trkpt lat="39.24712" lon="-7.021940000000001">
        <ele>341.85</ele>
      </trkpt>
      <trkpt lat="39.247130000000006" lon="-7.02179">
        <ele>342.27000000000004</ele>
      </trkpt>
      <trkpt lat="39.24721" lon="-7.02146">
        <ele>342.58000000000004</ele>
      </trkpt>
      <trkpt lat="39.24734" lon="-7.02111">
        <ele>343.01000000000005</ele>
      </trkpt>
      <trkpt lat="39.24743" lon="-7.02094">
        <ele>342.98</ele>
      </trkpt>
      <trkpt lat="39.24748" lon="-7.02085">
        <ele>342.84000000000003</ele>
      </trkpt>
      <trkpt lat="39.24775" lon="-7.0205400000000004">
        <ele>343.14</ele>
      </trkpt>
      <trkpt lat="39.24794" lon="-7.020250000000001">
        <ele>343.55</ele>
      </trkpt>
      <trkpt lat="39.24814000000001" lon="-7.02005">
        <ele>344.39000000000004</ele>
      </trkpt>
      <trkpt lat="39.24821" lon="-7.019940000000001">
        <ele>344.71000000000004</ele>
      </trkpt>
      <trkpt lat="39.248470000000005" lon="-7.019500000000001">
        <ele>346.65000000000003</ele>
      </trkpt>
      <trkpt lat="39.24859" lon="-7.01935">
        <ele>347.62</ele>
      </trkpt>
      <trkpt lat="39.248720000000006" lon="-7.01897">
        <ele>349.44</ele>
      </trkpt>
      <trkpt lat="39.248780000000004" lon="-7.0189">
        <ele>349.66</ele>
      </trkpt>
      <trkpt lat="39.24891" lon="-7.018800000000001">
        <ele>350.35</ele>
      </trkpt>
      <trkpt lat="39.249140000000004" lon="-7.01864">
        <ele>351.04</ele>
      </trkpt>
      <trkpt lat="39.24922" lon="-7.0185">
        <ele>352.21000000000004</ele>
      </trkpt>
      <trkpt lat="39.249410000000005" lon="-7.018070000000001">
        <ele>354.90999999999997</ele>
      </trkpt>
      <trkpt lat="39.2496" lon="-7.017440000000001">
        <ele>357.53000000000003</ele>
      </trkpt>
      <trkpt lat="39.24964000000001" lon="-7.016970000000001">
        <ele>356.46000000000004</ele>
      </trkpt>
      <trkpt lat="39.249700000000004" lon="-7.016850000000001">
        <ele>355.90000000000003</ele>
      </trkpt>
      <trkpt lat="39.24971" lon="-7.016680000000001">
        <ele>355.23</ele>
      </trkpt>
      <trkpt lat="39.24978" lon="-7.01632">
        <ele>353.76</ele>
      </trkpt>
      <trkpt lat="39.24978" lon="-7.016170000000001">
        <ele>352.82</ele>
      </trkpt>
      <trkpt lat="39.24974" lon="-7.01604">
        <ele>352.32</ele>
      </trkpt>
      <trkpt lat="39.24967" lon="-7.015910000000001">
        <ele>352.25</ele>
      </trkpt>
      <trkpt lat="39.249570000000006" lon="-7.01578">
        <ele>352.58</ele>
      </trkpt>
      <trkpt lat="39.249550000000006" lon="-7.01569">
        <ele>352.68000000000006</ele>
      </trkpt>
      <trkpt lat="39.24954" lon="-7.01564">
        <ele>352.67</ele>
      </trkpt>
      <trkpt lat="39.249550000000006" lon="-7.015490000000001">
        <ele>352.82</ele>
      </trkpt>
      <trkpt lat="39.24954" lon="-7.01522">
        <ele>353.48</ele>
      </trkpt>
      <trkpt lat="39.24971" lon="-7.01491">
        <ele>352.04</ele>
      </trkpt>
      <trkpt lat="39.249750000000006" lon="-7.0147200000000005">
        <ele>352.23</ele>
      </trkpt>
      <trkpt lat="39.24976" lon="-7.014590000000001">
        <ele>352.63000000000005</ele>
      </trkpt>
      <trkpt lat="39.24973000000001" lon="-7.01426">
        <ele>353.48</ele>
      </trkpt>
      <trkpt lat="39.24973000000001" lon="-7.014030000000001">
        <ele>353.50000000000006</ele>
      </trkpt>
      <trkpt lat="39.249660000000006" lon="-7.013940000000001">
        <ele>354.12000000000006</ele>
      </trkpt>
      <trkpt lat="39.24964000000001" lon="-7.01388">
        <ele>354.1</ele>
      </trkpt>
      <trkpt lat="39.24962" lon="-7.01367">
        <ele>354.1</ele>
      </trkpt>
      <trkpt lat="39.249520000000004" lon="-7.013440000000001">
        <ele>354.06000000000006</ele>
      </trkpt>
      <trkpt lat="39.24947" lon="-7.0132200000000005">
        <ele>353.34000000000003</ele>
      </trkpt>
      <trkpt lat="39.24938" lon="-7.013020000000001">
        <ele>353.26</ele>
      </trkpt>
      <trkpt lat="39.24936" lon="-7.012910000000001">
        <ele>352.96000000000004</ele>
      </trkpt>
      <trkpt lat="39.249340000000004" lon="-7.01273">
        <ele>351.66</ele>
      </trkpt>
      <trkpt lat="39.24936" lon="-7.012560000000001">
        <ele>351.66</ele>
      </trkpt>
      <trkpt lat="39.249340000000004" lon="-7.01236">
        <ele>350.75</ele>
      </trkpt>
      <trkpt lat="39.24927" lon="-7.01212">
        <ele>350.82</ele>
      </trkpt>
      <trkpt lat="39.24927" lon="-7.01175">
        <ele>350.85</ele>
      </trkpt>
      <trkpt lat="39.249300000000005" lon="-7.01144">
        <ele>351.12000000000006</ele>
      </trkpt>
      <trkpt lat="39.24927" lon="-7.011150000000001">
        <ele>351.36</ele>
      </trkpt>
      <trkpt lat="39.24933" lon="-7.010650000000001">
        <ele>351.09000000000003</ele>
      </trkpt>
      <trkpt lat="39.24944" lon="-7.0102">
        <ele>350.1</ele>
      </trkpt>
      <trkpt lat="39.249430000000004" lon="-7.0101">
        <ele>350.39000000000004</ele>
      </trkpt>
      <trkpt lat="39.24945" lon="-7.009880000000001">
        <ele>350.18000000000006</ele>
      </trkpt>
      <trkpt lat="39.24942" lon="-7.0096300000000005">
        <ele>350.84000000000003</ele>
      </trkpt>
      <trkpt lat="39.24942" lon="-7.009430000000001">
        <ele>351.25</ele>
      </trkpt>
      <trkpt lat="39.249480000000005" lon="-7.009340000000001">
        <ele>351.05</ele>
      </trkpt>
      <trkpt lat="39.24947" lon="-7.009200000000001">
        <ele>351.38</ele>
      </trkpt>
      <trkpt lat="39.24958" lon="-7.00884">
        <ele>352.43</ele>
      </trkpt>
      <trkpt lat="39.24973000000001" lon="-7.0085500000000005">
        <ele>353.92</ele>
      </trkpt>
      <trkpt lat="39.24976" lon="-7.008450000000001">
        <ele>354.67</ele>
      </trkpt>
      <trkpt lat="39.249590000000005" lon="-7.008190000000001">
        <ele>358.87</ele>
      </trkpt>
      <trkpt lat="39.249570000000006" lon="-7.00802">
        <ele>360.75</ele>
      </trkpt>
      <trkpt lat="39.2496" lon="-7.007930000000001">
        <ele>361.18000000000006</ele>
      </trkpt>
      <trkpt lat="39.2496" lon="-7.007820000000001">
        <ele>362.43</ele>
      </trkpt>
      <trkpt lat="39.24958" lon="-7.00776">
        <ele>362.43</ele>
      </trkpt>
      <trkpt lat="39.24954" lon="-7.00771">
        <ele>362.74</ele>
      </trkpt>
      <trkpt lat="39.24951" lon="-7.007610000000001">
        <ele>364.36</ele>
      </trkpt>
      <trkpt lat="39.24927" lon="-7.0071900000000005">
        <ele>367.22</ele>
      </trkpt>
      <trkpt lat="39.24909" lon="-7.007020000000001">
        <ele>368.55</ele>
      </trkpt>
      <trkpt lat="39.24906" lon="-7.006970000000001">
        <ele>368.55</ele>
      </trkpt>
      <trkpt lat="39.24904" lon="-7.00687">
        <ele>369.09000000000003</ele>
      </trkpt>
      <trkpt lat="39.24888" lon="-7.00668">
        <ele>369.82000000000005</ele>
      </trkpt>
      <trkpt lat="39.24886" lon="-7.00654">
        <ele>370.33000000000004</ele>
      </trkpt>
      <trkpt lat="39.248760000000004" lon="-7.006360000000001">
        <ele>370.86</ele>
      </trkpt>
      <trkpt lat="39.24877" lon="-7.006100000000001">
        <ele>370.96</ele>
      </trkpt>
      <trkpt lat="39.248740000000005" lon="-7.005750000000001">
        <ele>371.39000000000004</ele>
      </trkpt>
      <trkpt lat="39.24859" lon="-7.00539">
        <ele>371.96</ele>
      </trkpt>
      <trkpt lat="39.248490000000004" lon="-7.005260000000001">
        <ele>372.11000000000007</ele>
      </trkpt>
      <trkpt lat="39.24848" lon="-7.0052">
        <ele>372.20000000000005</ele>
      </trkpt>
      <trkpt lat="39.2485" lon="-7.00506">
        <ele>372.23</ele>
      </trkpt>
      <trkpt lat="39.248310000000004" lon="-7.0046100000000004">
        <ele>371.68</ele>
      </trkpt>
      <trkpt lat="39.24824" lon="-7.00438">
        <ele>371.01</ele>
      </trkpt>
      <trkpt lat="39.24815" lon="-7.00424">
        <ele>370.3</ele>
      </trkpt>
      <trkpt lat="39.2481" lon="-7.0042100000000005">
        <ele>369.24</ele>
      </trkpt>
      <trkpt lat="39.24803" lon="-7.0042100000000005">
        <ele>369.24</ele>
      </trkpt>
      <trkpt lat="39.247870000000006" lon="-7.00396">
        <ele>366.8</ele>
      </trkpt>
      <trkpt lat="39.24776000000001" lon="-7.00391">
        <ele>366.67</ele>
      </trkpt>
      <trkpt lat="39.247620000000005" lon="-7.0036700000000005">
        <ele>365.46</ele>
      </trkpt>
      <trkpt lat="39.2477" lon="-7.003540000000001">
        <ele>364.95000000000005</ele>
      </trkpt>
      <trkpt lat="39.247840000000004" lon="-7.003430000000001">
        <ele>364.47</ele>
      </trkpt>
      <trkpt lat="39.247980000000005" lon="-7.0032000000000005">
        <ele>363.55</ele>
      </trkpt>
      <trkpt lat="39.248070000000006" lon="-7.00309">
        <ele>362.88000000000005</ele>
      </trkpt>
      <trkpt lat="39.24813" lon="-7.002980000000001">
        <ele>362.35</ele>
      </trkpt>
      <trkpt lat="39.24823000000001" lon="-7.002720000000001">
        <ele>360.64</ele>
      </trkpt>
      <trkpt lat="39.24844" lon="-7.00262">
        <ele>358.85</ele>
      </trkpt>
      <trkpt lat="39.248520000000006" lon="-7.00255">
        <ele>358.33000000000004</ele>
      </trkpt>
      <trkpt lat="39.24884" lon="-7.002140000000001">
        <ele>354.32</ele>
      </trkpt>
      <trkpt lat="39.249030000000005" lon="-7.002140000000001">
        <ele>353.1</ele>
      </trkpt>
      <trkpt lat="39.24909" lon="-7.00213">
        <ele>353.1</ele>
      </trkpt>
      <trkpt lat="39.249320000000004" lon="-7.0019800000000005">
        <ele>351.53000000000003</ele>
      </trkpt>
      <trkpt lat="39.249480000000005" lon="-7.00173">
        <ele>351.1</ele>
      </trkpt>
      <trkpt lat="39.24953" lon="-7.001640000000001">
        <ele>350.62000000000006</ele>
      </trkpt>
      <trkpt lat="39.249610000000004" lon="-7.001390000000001">
        <ele>350.66</ele>
      </trkpt>
      <trkpt lat="39.24969" lon="-7.00126">
        <ele>350.92</ele>
      </trkpt>
      <trkpt lat="39.24976" lon="-7.001220000000001">
        <ele>350.96000000000004</ele>
      </trkpt>
      <trkpt lat="39.249860000000005" lon="-7.001220000000001">
        <ele>351.07000000000005</ele>
      </trkpt>
      <trkpt lat="39.25003" lon="-7.00112">
        <ele>351.02000000000004</ele>
      </trkpt>
      <trkpt lat="39.25023" lon="-7.001110000000001">
        <ele>350.79</ele>
      </trkpt>
      <trkpt lat="39.250460000000004" lon="-7.001080000000001">
        <ele>349.58</ele>
      </trkpt>
      <trkpt lat="39.25104" lon="-7.00084">
        <ele>346.71000000000004</ele>
      </trkpt>
      <trkpt lat="39.25114000000001" lon="-7.00079">
        <ele>345.82</ele>
      </trkpt>
      <trkpt lat="39.25122" lon="-7.000710000000001">
        <ele>345.62</ele>
      </trkpt>
      <trkpt lat="39.251560000000005" lon="-7.000170000000001">
        <ele>345.02000000000004</ele>
      </trkpt>
      <trkpt lat="39.25153" lon="-6.9999400000000005">
        <ele>345.36000000000007</ele>
      </trkpt>
      <trkpt lat="39.25128" lon="-6.999130000000001">
        <ele>347.07000000000005</ele>
      </trkpt>
      <trkpt lat="39.25103" lon="-6.998520000000001">
        <ele>348.67</ele>
      </trkpt>
      <trkpt lat="39.250930000000004" lon="-6.998360000000001">
        <ele>349.31</ele>
      </trkpt>
      <trkpt lat="39.250710000000005" lon="-6.99807">
        <ele>350.57000000000005</ele>
      </trkpt>
      <trkpt lat="39.25063" lon="-6.9980400000000005">
        <ele>351.25</ele>
      </trkpt>
      <trkpt lat="39.25054" lon="-6.99807">
        <ele>351.71000000000004</ele>
      </trkpt>
      <trkpt lat="39.25048" lon="-6.998080000000001">
        <ele>351.94</ele>
      </trkpt>
      <trkpt lat="39.25043" lon="-6.998060000000001">
        <ele>352.82</ele>
      </trkpt>
      <trkpt lat="39.25036" lon="-6.998010000000001">
        <ele>352.82</ele>
      </trkpt>
      <trkpt lat="39.25023" lon="-6.99781">
        <ele>353.68000000000006</ele>
      </trkpt>
      <trkpt lat="39.25014" lon="-6.99772">
        <ele>354.08</ele>
      </trkpt>
      <trkpt lat="39.25" lon="-6.997630000000001">
        <ele>354.39000000000004</ele>
      </trkpt>
      <trkpt lat="39.24987" lon="-6.997490000000001">
        <ele>355.27000000000004</ele>
      </trkpt>
      <trkpt lat="39.249750000000006" lon="-6.997260000000001">
        <ele>355.78000000000003</ele>
      </trkpt>
      <trkpt lat="39.24973000000001" lon="-6.99704">
        <ele>355.87</ele>
      </trkpt>
      <trkpt lat="39.24976" lon="-6.996840000000001">
        <ele>356.32</ele>
      </trkpt>
      <trkpt lat="39.24974" lon="-6.996740000000001">
        <ele>356.50000000000006</ele>
      </trkpt>
      <trkpt lat="39.249700000000004" lon="-6.99664">
        <ele>356.92</ele>
      </trkpt>
      <trkpt lat="39.249410000000005" lon="-6.996340000000001">
        <ele>357.61</ele>
      </trkpt>
      <trkpt lat="39.24924" lon="-6.9958800000000005">
        <ele>357.92</ele>
      </trkpt>
      <trkpt lat="39.24911" lon="-6.9957">
        <ele>357.96000000000004</ele>
      </trkpt>
      <trkpt lat="39.24902" lon="-6.995710000000001">
        <ele>358.19</ele>
      </trkpt>
      <trkpt lat="39.248940000000005" lon="-6.99579">
        <ele>358.58</ele>
      </trkpt>
      <trkpt lat="39.24884" lon="-6.99584">
        <ele>358.87</ele>
      </trkpt>
      <trkpt lat="39.24873" lon="-6.99584">
        <ele>358.84000000000003</ele>
      </trkpt>
      <trkpt lat="39.248670000000004" lon="-6.9958100000000005">
        <ele>358.84000000000003</ele>
      </trkpt>
      <trkpt lat="39.2486" lon="-6.99582">
        <ele>358.81</ele>
      </trkpt>
      <trkpt lat="39.24833" lon="-6.995950000000001">
        <ele>359.69</ele>
      </trkpt>
      <trkpt lat="39.24804" lon="-6.996010000000001">
        <ele>360.19</ele>
      </trkpt>
      <trkpt lat="39.24776000000001" lon="-6.9962100000000005">
        <ele>360.96</ele>
      </trkpt>
      <trkpt lat="39.247620000000005" lon="-6.996370000000001">
        <ele>361.16</ele>
      </trkpt>
      <trkpt lat="39.24754" lon="-6.996410000000001">
        <ele>360.94000000000005</ele>
      </trkpt>
      <trkpt lat="39.24734" lon="-6.996480000000001">
        <ele>359.87</ele>
      </trkpt>
      <trkpt lat="39.24723" lon="-6.99647">
        <ele>359.38000000000005</ele>
      </trkpt>
      <trkpt lat="39.247110000000006" lon="-6.99643">
        <ele>359.05</ele>
      </trkpt>
      <trkpt lat="39.24689" lon="-6.99647">
        <ele>358.7</ele>
      </trkpt>
      <trkpt lat="39.24672" lon="-6.9964">
        <ele>357.79</ele>
      </trkpt>
      <trkpt lat="39.246550000000006" lon="-6.9963500000000005">
        <ele>357.43</ele>
      </trkpt>
      <trkpt lat="39.246480000000005" lon="-6.99636">
        <ele>356.98</ele>
      </trkpt>
      <trkpt lat="39.246390000000005" lon="-6.996390000000001">
        <ele>356.81</ele>
      </trkpt>
      <trkpt lat="39.24598" lon="-6.996700000000001">
        <ele>356.85</ele>
      </trkpt>
      <trkpt lat="39.24586" lon="-6.9968200000000005">
        <ele>357.24</ele>
      </trkpt>
      <trkpt lat="39.24575" lon="-6.996980000000001">
        <ele>358.08</ele>
      </trkpt>
      <trkpt lat="39.245650000000005" lon="-6.99708">
        <ele>359.29</ele>
      </trkpt>
      <trkpt lat="39.245430000000006" lon="-6.997120000000001">
        <ele>359.05</ele>
      </trkpt>
      <trkpt lat="39.24512" lon="-6.997280000000001">
        <ele>359.82</ele>
      </trkpt>
      <trkpt lat="39.24476000000001" lon="-6.997630000000001">
        <ele>361.09000000000003</ele>
      </trkpt>
      <trkpt lat="39.244670000000006" lon="-6.99769">
        <ele>361.42</ele>
      </trkpt>
      <trkpt lat="39.244530000000005" lon="-6.997870000000001">
        <ele>362.61</ele>
      </trkpt>
      <trkpt lat="39.244460000000004" lon="-6.997910000000001">
        <ele>362.61</ele>
      </trkpt>
      <trkpt lat="39.24437" lon="-6.99786">
        <ele>362.62000000000006</ele>
      </trkpt>
      <trkpt lat="39.24434" lon="-6.9977800000000006">
        <ele>362.62000000000006</ele>
      </trkpt>
      <trkpt lat="39.24427" lon="-6.99772">
        <ele>362.49</ele>
      </trkpt>
      <trkpt lat="39.24423" lon="-6.997630000000001">
        <ele>362.1</ele>
      </trkpt>
      <trkpt lat="39.24423" lon="-6.997400000000001">
        <ele>361.48</ele>
      </trkpt>
      <trkpt lat="39.244200000000006" lon="-6.997300000000001">
        <ele>361.48</ele>
      </trkpt>
      <trkpt lat="39.244080000000004" lon="-6.9970300000000005">
        <ele>361.14</ele>
      </trkpt>
      <trkpt lat="39.244060000000005" lon="-6.99694">
        <ele>361.46</ele>
      </trkpt>
      <trkpt lat="39.244040000000005" lon="-6.9967500000000005">
        <ele>361.62000000000006</ele>
      </trkpt>
      <trkpt lat="39.24396" lon="-6.9964">
        <ele>362.36</ele>
      </trkpt>
      <trkpt lat="39.243930000000006" lon="-6.996150000000001">
        <ele>362.83000000000004</ele>
      </trkpt>
      <trkpt lat="39.243930000000006" lon="-6.996010000000001">
        <ele>362.8</ele>
      </trkpt>
      <trkpt lat="39.244" lon="-6.9956000000000005">
        <ele>362.56000000000006</ele>
      </trkpt>
      <trkpt lat="39.243990000000004" lon="-6.99549">
        <ele>362.56000000000006</ele>
      </trkpt>
      <trkpt lat="39.243970000000004" lon="-6.995340000000001">
        <ele>362.8</ele>
      </trkpt>
      <trkpt lat="39.24392" lon="-6.99525">
        <ele>363.03000000000003</ele>
      </trkpt>
      <trkpt lat="39.24367" lon="-6.99495">
        <ele>364.43</ele>
      </trkpt>
      <trkpt lat="39.24362" lon="-6.994820000000001">
        <ele>364.53000000000003</ele>
      </trkpt>
      <trkpt lat="39.24362" lon="-6.99467">
        <ele>363.89000000000004</ele>
      </trkpt>
      <trkpt lat="39.243660000000006" lon="-6.99453">
        <ele>363.45000000000005</ele>
      </trkpt>
      <trkpt lat="39.24371" lon="-6.994400000000001">
        <ele>363.08</ele>
      </trkpt>
      <trkpt lat="39.243730000000006" lon="-6.994230000000001">
        <ele>362.59000000000003</ele>
      </trkpt>
      <trkpt lat="39.243680000000005" lon="-6.99408">
        <ele>362.59000000000003</ele>
      </trkpt>
      <trkpt lat="39.243500000000004" lon="-6.993650000000001">
        <ele>361.45000000000005</ele>
      </trkpt>
      <trkpt lat="39.24342" lon="-6.99352">
        <ele>361.1</ele>
      </trkpt>
      <trkpt lat="39.24335000000001" lon="-6.99326">
        <ele>360.22</ele>
      </trkpt>
      <trkpt lat="39.243460000000006" lon="-6.992890000000001">
        <ele>359.83000000000004</ele>
      </trkpt>
      <trkpt lat="39.24345" lon="-6.9927">
        <ele>359.89000000000004</ele>
      </trkpt>
      <trkpt lat="39.243410000000004" lon="-6.992520000000001">
        <ele>359.96</ele>
      </trkpt>
      <trkpt lat="39.24335000000001" lon="-6.99237">
        <ele>360.18000000000006</ele>
      </trkpt>
      <trkpt lat="39.2432" lon="-6.99211">
        <ele>360.78000000000003</ele>
      </trkpt>
      <trkpt lat="39.24311" lon="-6.991880000000001">
        <ele>361.85</ele>
      </trkpt>
      <trkpt lat="39.24293" lon="-6.99171">
        <ele>362.26</ele>
      </trkpt>
      <trkpt lat="39.24289" lon="-6.99164">
        <ele>362.33000000000004</ele>
      </trkpt>
      <trkpt lat="39.24288000000001" lon="-6.991560000000001">
        <ele>362.61</ele>
      </trkpt>
      <trkpt lat="39.24284" lon="-6.991440000000001">
        <ele>363.16</ele>
      </trkpt>
      <trkpt lat="39.24279000000001" lon="-6.991130000000001">
        <ele>364.89000000000004</ele>
      </trkpt>
      <trkpt lat="39.24341000053075" lon="-6.9907850030373275">
        <ele>364.96</ele>
      </trkpt>
      <trkpt lat="39.24403" lon="-6.99044">
        <ele>366.42</ele>
      </trkpt>
      <trkpt lat="39.244170000000004" lon="-6.990620000000001">
        <ele>367.34000000000003</ele>
      </trkpt>
      <trkpt lat="39.244330000000005" lon="-6.990690000000001">
        <ele>367.03000000000003</ele>
      </trkpt>
      <trkpt lat="39.244800000000005" lon="-6.990970000000001">
        <ele>366.20000000000005</ele>
      </trkpt>
      <trkpt lat="39.24532000000001" lon="-6.991200000000001">
        <ele>366.26000000000005</ele>
      </trkpt>
      <trkpt lat="39.245430000000006" lon="-6.991210000000001">
        <ele>366.15000000000003</ele>
      </trkpt>
      <trkpt lat="39.245540000000005" lon="-6.991200000000001">
        <ele>366.15000000000003</ele>
      </trkpt>
      <trkpt lat="39.24573" lon="-6.991130000000001">
        <ele>366.61</ele>
      </trkpt>
      <trkpt lat="39.24615" lon="-6.9909300000000005">
        <ele>369.47</ele>
      </trkpt>
      <trkpt lat="39.24622" lon="-6.99091">
        <ele>370.14000000000004</ele>
      </trkpt>
      <trkpt lat="39.24627" lon="-6.990950000000001">
        <ele>370.26000000000005</ele>
      </trkpt>
      <trkpt lat="39.246300000000005" lon="-6.99103">
        <ele>370.22</ele>
      </trkpt>
      <trkpt lat="39.246410000000004" lon="-6.9914000000000005">
        <ele>369.85</ele>
      </trkpt>
      <trkpt lat="39.246640000000006" lon="-6.992280000000001">
        <ele>366.68</ele>
      </trkpt>
      <trkpt lat="39.246674417500806" lon="-6.992411613464356">
        <ele>366.26000000000005</ele>
      </trkpt>
    </trkseg>
  </trk>
</gpx>
